Observation data for Weinert on 01/11/2018      Previous  Date  Next       Current Mesonet Observations  Soil Data  Daily Summary Page  Observations in Plain Language
KWE1 110600Z 20015KT 11/05 A2962 RMK A01 T01080049  RH  067%=      5-min Rain = 0
KWE1 110601Z 21015KT 11/05 A2962 RMK A01 T01080049  RH  067%=      5-min Rain = 0
KWE1 110602Z 21016KT 11/05 A2962 RMK A01 T01080049  RH  067%=      5-min Rain = 0
KWE1 110603Z 20016KT 11/05 A2962 RMK A01 T01080049  RH  067%=      5-min Rain = 0
KWE1 110604Z 21015KT 11/05 A2962 RMK A01 T01080049  RH  067%=      5-min Rain = 0
KWE1 110605Z 21015KT 11/05 A2962 RMK A01 T01080049  RH  067%=      5-min Rain = 0
KWE1 110606Z 21015G20KT 11/05 A2962 RMK A01 T01080049  RH  067%=      5-min Rain = 0
KWE1 110607Z 21016KT 11/05 A2962 RMK A01 T01090048  RH  066%=      5-min Rain = 0
KWE1 110608Z 21015KT 11/05 A2962 RMK A01 T01090048  RH  066%=      5-min Rain = 0
KWE1 110609Z 21015KT 11/05 A2962 RMK A01 T01090048  RH  066%=      5-min Rain = 0
KWE1 110610Z 21014KT 11/05 A2962 RMK A01 T01090048  RH  066%=      5-min Rain = 0
KWE1 110611Z 21015KT 11/05 A2962 RMK A01 T01090048  RH  066%=      5-min Rain = 0
KWE1 110612Z 21015KT 11/05 A2962 RMK A01 T01080048  RH  066%=      5-min Rain = 0
KWE1 110613Z 21015KT 11/05 A2962 RMK A01 T01080048  RH  067%=      5-min Rain = 0
KWE1 110614Z 21014KT 11/05 A2962 RMK A01 T01080049  RH  067%=      5-min Rain = 0
KWE1 110615Z 21016KT 11/05 A2961 RMK A01 T01070048  RH  067%=      5-min Rain = 0
KWE1 110616Z 21014KT 11/05 A2961 RMK A01 T01070048  RH  067%=      5-min Rain = 0
KWE1 110617Z 21016KT 11/05 A2961 RMK A01 T01070048  RH  067%=      5-min Rain = 0
KWE1 110618Z 21014KT 11/05 A2961 RMK A01 T01060048  RH  067%=      5-min Rain = 0
KWE1 110619Z 21015KT 11/05 A2961 RMK A01 T01060048  RH  067%=      5-min Rain = 0
KWE1 110620Z 21014KT 11/05 A2961 RMK A01 T01060048  RH  068%=      5-min Rain = 0
KWE1 110621Z 21014KT 11/05 A2961 RMK A01 T01060048  RH  068%=      5-min Rain = 0
KWE1 110622Z 21014KT 11/05 A2961 RMK A01 T01050048  RH  068%=      5-min Rain = 0
KWE1 110623Z 21014KT 11/05 A2961 RMK A01 T01050048  RH  068%=      5-min Rain = 0
KWE1 110624Z 21015KT 11/05 A2961 RMK A01 T01050048  RH  068%=      5-min Rain = 0
KWE1 110625Z 21014KT 11/05 A2961 RMK A01 T01050047  RH  067%=      5-min Rain = 0
KWE1 110626Z 21015KT 11/05 A2961 RMK A01 T01050047  RH  067%=      5-min Rain = 0
KWE1 110627Z 21015KT 11/05 A2961 RMK A01 T01050047  RH  067%=      5-min Rain = 0
KWE1 110628Z 21013KT 11/05 A2961 RMK A01 T01050047  RH  067%=      5-min Rain = 0
KWE1 110629Z 21014KT 10/05 A2961 RMK A01 T01040047  RH  068%=      5-min Rain = 0
KWE1 110630Z 21015KT 11/05 A2961 RMK A01 T01050048  RH  068%=      5-min Rain = 0
KWE1 110631Z 21015KT 10/05 A2961 RMK A01 T01040047  RH  068%=      5-min Rain = 0
KWE1 110632Z 21015KT 11/05 A2961 RMK A01 T01050047  RH  067%=      5-min Rain = 0
KWE1 110633Z 21014KT 11/05 A2961 RMK A01 T01050047  RH  067%=      5-min Rain = 0
KWE1 110634Z 21015KT 11/05 A2961 RMK A01 T01050046  RH  067%=      5-min Rain = 0
KWE1 110635Z 21015KT 11/05 A2961 RMK A01 T01050046  RH  067%=      5-min Rain = 0
KWE1 110636Z 21014KT 11/05 A2961 RMK A01 T01050046  RH  067%=      5-min Rain = 0
KWE1 110637Z 21015KT 11/05 A2961 RMK A01 T01050046  RH  067%=      5-min Rain = 0
KWE1 110638Z 21015KT 10/05 A296 RMK A01 T01040046  RH  067%=      5-min Rain = 0
KWE1 110639Z 21015KT 10/05 A296 RMK A01 T01040046  RH  067%=      5-min Rain = 0
KWE1 110640Z 20016KT 10/05 A296 RMK A01 T01040046  RH  067%=      5-min Rain = 0
KWE1 110641Z 21014KT 10/05 A296 RMK A01 T01040045  RH  067%=      5-min Rain = 0
KWE1 110642Z 21015KT 10/05 A296 RMK A01 T01040046  RH  067%=      5-min Rain = 0
KWE1 110643Z 21014KT 10/05 A296 RMK A01 T01040046  RH  067%=      5-min Rain = 0
KWE1 110644Z 20014G19KT 10/05 A296 RMK A01 T01030045  RH  067%=      5-min Rain = 0
KWE1 110645Z 20014KT 10/05 A296 RMK A01 T01030045  RH  067%=      5-min Rain = 0
KWE1 110646Z 20015KT 10/05 A296 RMK A01 T01040045  RH  067%=      5-min Rain = 0
KWE1 110647Z 20017KT 10/04 A296 RMK A01 T01040044  RH  066%=      5-min Rain = 0
KWE1 110648Z 21016G21KT 11/04 A296 RMK A01 T01060044  RH  066%=      5-min Rain = 0
KWE1 110649Z 20016KT 11/04 A296 RMK A01 T01070044  RH  065%=      5-min Rain = 0
KWE1 110650Z 20016KT 11/04 A296 RMK A01 T01070044  RH  065%=      5-min Rain = 0
KWE1 110651Z 20016KT 11/04 A296 RMK A01 T01070044  RH  065%=      5-min Rain = 0
KWE1 110652Z 21018KT 11/04 A296 RMK A01 T01070044  RH  065%=      5-min Rain = 0
KWE1 110653Z 21016KT 11/04 A296 RMK A01 T01080043  RH  065%=      5-min Rain = 0
KWE1 110654Z 21016KT 11/04 A296 RMK A01 T01080044  RH  065%=      5-min Rain = 0
KWE1 110655Z 21016KT 11/04 A296 RMK A01 T01070044  RH  065%=      5-min Rain = 0
KWE1 110656Z 21015KT 11/04 A296 RMK A01 T01070044  RH  065%=      5-min Rain = 0
KWE1 110657Z 21016KT 11/04 A296 RMK A01 T01060044  RH  066%=      5-min Rain = 0
KWE1 110658Z 21016KT 11/04 A296 RMK A01 T01050044  RH  066%=      5-min Rain = 0
KWE1 110659Z 21016KT 11/04 A296 RMK A01 T01050044  RH  066%=      5-min Rain = 0
KWE1 110700Z 21016KT 10/04 A296 RMK A01 T01040044  RH  066%=      5-min Rain = 0
KWE1 110701Z 21015KT 10/04 A296 RMK A01 T01030044  RH  067%=      5-min Rain = 0
KWE1 110702Z 21015KT 10/04 A2959 RMK A01 T01020044  RH  067%=      5-min Rain = 0
KWE1 110703Z 21017KT 10/04 A2959 RMK A01 T01030044  RH  067%=      5-min Rain = 0
KWE1 110704Z 20016KT 10/04 A2959 RMK A01 T01030044  RH  067%=      5-min Rain = 0
KWE1 110705Z 21016KT 10/04 A2959 RMK A01 T01040044  RH  066%=      5-min Rain = 0
KWE1 110706Z 21015KT 10/04 A2959 RMK A01 T01040044  RH  066%=      5-min Rain = 0
KWE1 110707Z 21016KT 10/04 A2959 RMK A01 T01040044  RH  066%=      5-min Rain = 0
KWE1 110708Z 21017KT 10/04 A2959 RMK A01 T01040044  RH  066%=      5-min Rain = 0
KWE1 110709Z 21016KT 10/04 A2959 RMK A01 T01040043  RH  066%=      5-min Rain = 0
KWE1 110710Z 21017KT 10/04 A2959 RMK A01 T01040043  RH  066%=      5-min Rain = 0
KWE1 110711Z 21018KT 11/04 A2959 RMK A01 T01060043  RH  065%=      5-min Rain = 0
KWE1 110712Z 21016KT 11/04 A296 RMK A01 T01060043  RH  065%=      5-min Rain = 0
KWE1 110713Z 21018KT 11/04 A2959 RMK A01 T01060044  RH  065%=      5-min Rain = 0
KWE1 110714Z 21017KT 11/04 A2959 RMK A01 T01050043  RH  066%=      5-min Rain = 0
KWE1 110715Z 21018KT 11/04 A2959 RMK A01 T01050043  RH  066%=      5-min Rain = 0
KWE1 110716Z 21016KT 11/04 A2959 RMK A01 T01050043  RH  066%=      5-min Rain = 0
KWE1 110717Z 21016KT 11/04 A2959 RMK A01 T01050044  RH  066%=      5-min Rain = 0
KWE1 110718Z 21015KT 10/04 A2959 RMK A01 T01040044  RH  066%=      5-min Rain = 0
KWE1 110719Z 21016KT 10/04 A2959 RMK A01 T01020044  RH  067%=      5-min Rain = 0
KWE1 110720Z 21015KT 10/04 A2959 RMK A01 T01020044  RH  067%=      5-min Rain = 0
KWE1 110721Z 21016KT 10/04 A2959 RMK A01 T01010044  RH  067%=      5-min Rain = 0
KWE1 110722Z 21015KT 10/04 A2959 RMK A01 T01010044  RH  067%=      5-min Rain = 0
KWE1 110723Z 21015KT 10/04 A2959 RMK A01 T01010044  RH  068%=      5-min Rain = 0
KWE1 110724Z 21015KT 10/04 A2959 RMK A01 T01000044  RH  068%=      5-min Rain = 0
KWE1 110725Z 22015KT 10/04 A2959 RMK A01 T01000044  RH  068%=      5-min Rain = 0
KWE1 110726Z 22014KT 10/04 A2959 RMK A01 T01000044  RH  068%=      5-min Rain = 0
KWE1 110727Z 21015KT 10/04 A2959 RMK A01 T00990044  RH  069%=      5-min Rain = 0
KWE1 110728Z 21013KT 10/04 A2959 RMK A01 T00980044  RH  069%=      5-min Rain = 0
KWE1 110729Z 21013KT 10/04 A2959 RMK A01 T00970044  RH  070%=      5-min Rain = 0
KWE1 110730Z 22012KT 10/04 A2959 RMK A01 T00960044  RH  070%=      5-min Rain = 0
KWE1 110731Z 21012KT 10/04 A2959 RMK A01 T00950044  RH  071%=      5-min Rain = 0
KWE1 110732Z 22012KT 09/04 A2959 RMK A01 T00930044  RH  071%=      5-min Rain = 0
KWE1 110733Z 21010KT 09/04 A2959 RMK A01 T00930043  RH  071%=      5-min Rain = 0
KWE1 110734Z 21011KT 09/04 A2959 RMK A01 T00920043  RH  072%=      5-min Rain = 0
KWE1 110735Z 22012KT 09/04 A2959 RMK A01 T00910043  RH  072%=      5-min Rain = 0
KWE1 110736Z 22011KT 09/04 A2959 RMK A01 T00910043  RH  072%=      5-min Rain = 0
KWE1 110737Z 22012KT 09/04 A2959 RMK A01 T00910043  RH  072%=      5-min Rain = 0
KWE1 110738Z 22011KT 09/04 A2959 RMK A01 T00910043  RH  072%=      5-min Rain = 0
KWE1 110739Z 22011KT 09/04 A2959 RMK A01 T00910043  RH  072%=      5-min Rain = 0
KWE1 110740Z 22011KT 09/04 A2959 RMK A01 T00910043  RH  072%=      5-min Rain = 0
KWE1 110741Z 22012KT 09/04 A2959 RMK A01 T00910043  RH  072%=      5-min Rain = 0
KWE1 110742Z 22012KT 09/04 A2959 RMK A01 T00910043  RH  072%=      5-min Rain = 0
KWE1 110743Z 22011KT 09/04 A2959 RMK A01 T00910043  RH  072%=      5-min Rain = 0
KWE1 110744Z 22012KT 09/04 A2959 RMK A01 T00920043  RH  072%=      5-min Rain = 0
KWE1 110745Z 22013KT 09/04 A2959 RMK A01 T00920043  RH  072%=      5-min Rain = 0
KWE1 110746Z 23013KT 09/04 A2959 RMK A01 T00920043  RH  071%=      5-min Rain = 0
KWE1 110747Z 22012KT 09/04 A2959 RMK A01 T00920043  RH  071%=      5-min Rain = 0
KWE1 110748Z 23013KT 09/04 A2959 RMK A01 T00920043  RH  071%=      5-min Rain = 0
KWE1 110749Z 23012KT 09/04 A2959 RMK A01 T00930043  RH  071%=      5-min Rain = 0
KWE1 110750Z 22013KT 09/04 A2959 RMK A01 T00930043  RH  071%=      5-min Rain = 0
KWE1 110751Z 23013KT 09/04 A2959 RMK A01 T00930043  RH  071%=      5-min Rain = 0
KWE1 110752Z 23014KT 09/04 A2959 RMK A01 T00940043  RH  071%=      5-min Rain = 0
KWE1 110753Z 23014KT 10/04 A2959 RMK A01 T00950043  RH  070%=      5-min Rain = 0
KWE1 110754Z 23014KT 10/04 A2959 RMK A01 T00950043  RH  070%=      5-min Rain = 0
KWE1 110755Z 23014KT 10/04 A2959 RMK A01 T00960043  RH  070%=      5-min Rain = 0
KWE1 110756Z 23013KT 10/04 A2959 RMK A01 T00950042  RH  070%=      5-min Rain = 0
KWE1 110757Z 23014KT 10/04 A2959 RMK A01 T00960043  RH  070%=      5-min Rain = 0
KWE1 110758Z 23013KT 10/04 A2959 RMK A01 T00960043  RH  069%=      5-min Rain = 0
KWE1 110759Z 23014KT 10/04 A2959 RMK A01 T00960043  RH  069%=      5-min Rain = 0
KWE1 110800Z 23014KT 10/04 A2959 RMK A01 T00960043  RH  069%=      5-min Rain = 0
KWE1 110801Z 23014KT 10/04 A2959 RMK A01 T00960042  RH  069%=      5-min Rain = 0
KWE1 110802Z 23013KT 10/04 A2959 RMK A01 T00970042  RH  069%=      5-min Rain = 0
KWE1 110803Z 23011KT 10/04 A2959 RMK A01 T00960043  RH  069%=      5-min Rain = 0
KWE1 110804Z 23012KT 10/04 A2959 RMK A01 T00950042  RH  069%=      5-min Rain = 0
KWE1 110805Z 23012KT 10/04 A2959 RMK A01 T00950043  RH  070%=      5-min Rain = 0
KWE1 110806Z 23012KT 10/04 A2959 RMK A01 T00950043  RH  070%=      5-min Rain = 0
KWE1 110807Z 24012KT 10/04 A2959 RMK A01 T00950042  RH  070%=      5-min Rain = 0
KWE1 110808Z 24011KT 10/04 A2959 RMK A01 T00950042  RH  070%=      5-min Rain = 0
KWE1 110809Z 24011KT 10/04 A2959 RMK A01 T00950042  RH  070%=      5-min Rain = 0
KWE1 110810Z 24012KT 10/04 A2959 RMK A01 T00950042  RH  070%=      5-min Rain = 0
KWE1 110811Z 23013KT 10/04 A2959 RMK A01 T00950042  RH  070%=      5-min Rain = 0
KWE1 110812Z 24012KT 10/04 A2959 RMK A01 T00960042  RH  069%=      5-min Rain = 0
KWE1 110813Z 24013KT 10/04 A2959 RMK A01 T00960042  RH  069%=      5-min Rain = 0
KWE1 110814Z 24013KT 10/04 A2959 RMK A01 T00970042  RH  068%=      5-min Rain = 0
KWE1 110815Z 24013KT 10/04 A2959 RMK A01 T00980042  RH  068%=      5-min Rain = 0
KWE1 110816Z 24012KT 10/04 A2959 RMK A01 T00980042  RH  068%=      5-min Rain = 0
KWE1 110817Z 24011KT 10/04 A2959 RMK A01 T00990042  RH  068%=      5-min Rain = 0
KWE1 110818Z 24014KT 10/04 A2959 RMK A01 T00990041  RH  067%=      5-min Rain = 0
KWE1 110819Z 24014KT 10/04 A2959 RMK A01 T01000041  RH  067%=      5-min Rain = 0
KWE1 110820Z 24015KT 10/04 A2958 RMK A01 T01010041  RH  066%=      5-min Rain = 0
KWE1 110821Z 24014KT 10/04 A2958 RMK A01 T01030041  RH  065%=      5-min Rain = 0
KWE1 110822Z 24012KT 10/04 A2958 RMK A01 T01030040  RH  065%=      5-min Rain = 0
KWE1 110823Z 24013KT 10/04 A2958 RMK A01 T01040040  RH  065%=      5-min Rain = 0
KWE1 110824Z 24013KT 10/04 A2958 RMK A01 T01040040  RH  065%=      5-min Rain = 0
KWE1 110825Z 24014KT 10/04 A2958 RMK A01 T01040040  RH  064%=      5-min Rain = 0
KWE1 110826Z 24014KT 11/04 A2958 RMK A01 T01050040  RH  064%=      5-min Rain = 0
KWE1 110827Z 24014KT 11/04 A2958 RMK A01 T01050040  RH  064%=      5-min Rain = 0
KWE1 110828Z 24013KT 11/04 A2958 RMK A01 T01050039  RH  064%=      5-min Rain = 0
KWE1 110829Z 24014KT 11/04 A2958 RMK A01 T01050040  RH  064%=      5-min Rain = 0
KWE1 110830Z 24014KT 11/04 A2958 RMK A01 T01050040  RH  064%=      5-min Rain = 0
KWE1 110831Z 24016KT 11/04 A2958 RMK A01 T01050039  RH  064%=      5-min Rain = 0
KWE1 110832Z 24016KT 11/04 A2958 RMK A01 T01060039  RH  063%=      5-min Rain = 0
KWE1 110833Z 24015KT 11/04 A2958 RMK A01 T01070039  RH  063%=      5-min Rain = 0
KWE1 110834Z 24014G19KT 11/04 A2958 RMK A01 T01080039  RH  062%=      5-min Rain = 0
KWE1 110835Z 24015KT 11/04 A2958 RMK A01 T01080038  RH  062%=      5-min Rain = 0
KWE1 110836Z 24014KT 11/04 A2958 RMK A01 T01090038  RH  062%=      5-min Rain = 0
KWE1 110837Z 24015G20KT 11/04 A2958 RMK A01 T01090038  RH  061%=      5-min Rain = 0
KWE1 110838Z 24013KT 11/04 A2958 RMK A01 T01090037  RH  061%=      5-min Rain = 0
KWE1 110839Z 24014KT 11/04 A2958 RMK A01 T01090038  RH  061%=      5-min Rain = 0
KWE1 110840Z 24016KT 11/04 A2958 RMK A01 T01080038  RH  062%=      5-min Rain = 0
KWE1 110841Z 24014KT 11/04 A2957 RMK A01 T01080037  RH  062%=      5-min Rain = 0
KWE1 110842Z 24015KT 11/04 A2957 RMK A01 T01080037  RH  062%=      5-min Rain = 0
KWE1 110843Z 24014KT 11/04 A2957 RMK A01 T01080038  RH  062%=      5-min Rain = 0
KWE1 110844Z 24013KT 11/04 A2957 RMK A01 T01080038  RH  062%=      5-min Rain = 0
KWE1 110845Z 24016KT 11/04 A2957 RMK A01 T01080038  RH  062%=      5-min Rain = 0
KWE1 110846Z 24014KT 11/04 A2957 RMK A01 T01070038  RH  062%=      5-min Rain = 0
KWE1 110847Z 24014G19KT 11/04 A2957 RMK A01 T01060038  RH  063%=      5-min Rain = 0
KWE1 110848Z 24015KT 11/04 A2957 RMK A01 T01060038  RH  063%=      5-min Rain = 0
KWE1 110849Z 24015KT 11/04 A2957 RMK A01 T01060038  RH  063%=      5-min Rain = 0
KWE1 110850Z 24015KT 11/04 A2957 RMK A01 T01060037  RH  063%=      5-min Rain = 0
KWE1 110851Z 24014KT 11/04 A2957 RMK A01 T01060038  RH  063%=      5-min Rain = 0
KWE1 110852Z 24014KT 11/04 A2957 RMK A01 T01050037  RH  063%=      5-min Rain = 0
KWE1 110853Z 24015KT 10/04 A2956 RMK A01 T01040037  RH  063%=      5-min Rain = 0
KWE1 110854Z 23014G19KT 10/04 A2956 RMK A01 T01040037  RH  063%=      5-min Rain = 0
KWE1 110855Z 23013KT 10/04 A2956 RMK A01 T01040038  RH  064%=      5-min Rain = 0
KWE1 110856Z 23012KT 10/04 A2956 RMK A01 T01030038  RH  064%=      5-min Rain = 0
KWE1 110857Z 24013KT 10/04 A2956 RMK A01 T01020038  RH  064%=      5-min Rain = 0
KWE1 110858Z 24013KT 10/04 A2956 RMK A01 T01010037  RH  064%=      5-min Rain = 0
KWE1 110859Z 24013KT 10/04 A2956 RMK A01 T01010037  RH  064%=      5-min Rain = 0
KWE1 110900Z 23013KT 10/04 A2956 RMK A01 T01010037  RH  064%=      5-min Rain = 0
KWE1 110901Z 24014KT 10/04 A2956 RMK A01 T01020037  RH  064%=      5-min Rain = 0
KWE1 110902Z 24013KT 10/04 A2956 RMK A01 T01020037  RH  064%=      5-min Rain = 0
KWE1 110903Z 24012KT 10/04 A2956 RMK A01 T01020037  RH  064%=      5-min Rain = 0
KWE1 110904Z 24012KT 10/04 A2956 RMK A01 T01020037  RH  064%=      5-min Rain = 0
KWE1 110905Z 24012KT 10/04 A2956 RMK A01 T01010037  RH  065%=      5-min Rain = 0
KWE1 110906Z 24011KT 10/04 A2956 RMK A01 T01000037  RH  065%=      5-min Rain = 0
KWE1 110907Z 23012KT 10/04 A2956 RMK A01 T00990037  RH  065%=      5-min Rain = 0
KWE1 110908Z 24013KT 10/04 A2956 RMK A01 T00990037  RH  065%=      5-min Rain = 0
KWE1 110909Z 23011KT 10/04 A2956 RMK A01 T00990037  RH  065%=      5-min Rain = 0
KWE1 110910Z 23012KT 10/04 A2956 RMK A01 T00980037  RH  066%=      5-min Rain = 0
KWE1 110911Z 23012KT 10/04 A2956 RMK A01 T00980037  RH  066%=      5-min Rain = 0
KWE1 110912Z 23011KT 10/04 A2956 RMK A01 T00980037  RH  066%=      5-min Rain = 0
KWE1 110913Z 23011KT 10/04 A2956 RMK A01 T00970037  RH  066%=      5-min Rain = 0
KWE1 110914Z 23012KT 10/04 A2956 RMK A01 T00970037  RH  066%=      5-min Rain = 0
KWE1 110915Z 23012KT 10/04 A2956 RMK A01 T00970037  RH  066%=      5-min Rain = 0
KWE1 110916Z 23012KT 10/04 A2957 RMK A01 T00970037  RH  066%=      5-min Rain = 0
KWE1 110917Z 23013KT 10/04 A2957 RMK A01 T00960037  RH  066%=      5-min Rain = 0
KWE1 110918Z 23011KT 10/04 A2957 RMK A01 T00960036  RH  066%=      5-min Rain = 0
KWE1 110919Z 23011KT 10/04 A2957 RMK A01 T00960036  RH  066%=      5-min Rain = 0
KWE1 110920Z 23011KT 10/04 A2957 RMK A01 T00970036  RH  066%=      5-min Rain = 0
KWE1 110921Z 23011KT 10/04 A2956 RMK A01 T00960036  RH  066%=      5-min Rain = 0
KWE1 110922Z 23011KT 10/04 A2956 RMK A01 T00960036  RH  066%=      5-min Rain = 0
KWE1 110923Z 23011KT 10/04 A2957 RMK A01 T00960036  RH  066%=      5-min Rain = 0
KWE1 110924Z 23010KT 10/04 A2957 RMK A01 T00960036  RH  066%=      5-min Rain = 0
KWE1 110925Z 23010KT 10/04 A2956 RMK A01 T00960036  RH  066%=      5-min Rain = 0
KWE1 110926Z 23010KT 10/04 A2956 RMK A01 T00950036  RH  066%=      5-min Rain = 0
KWE1 110927Z 23010KT 09/04 A2956 RMK A01 T00940035  RH  067%=      5-min Rain = 0
KWE1 110928Z 23010KT 09/04 A2956 RMK A01 T00940036  RH  067%=      5-min Rain = 0
KWE1 110929Z 22010KT 09/04 A2956 RMK A01 T00930036  RH  067%=      5-min Rain = 0
KWE1 110930Z 22010KT 09/04 A2956 RMK A01 T00920035  RH  068%=      5-min Rain = 0
KWE1 110931Z 22010KT 09/04 A2956 RMK A01 T00920036  RH  068%=      5-min Rain = 0
KWE1 110932Z 22010KT 09/04 A2956 RMK A01 T00920036  RH  068%=      5-min Rain = 0
KWE1 110933Z 22011KT 09/04 A2956 RMK A01 T00920036  RH  068%=      5-min Rain = 0
KWE1 110934Z 22010KT 09/04 A2956 RMK A01 T00920036  RH  068%=      5-min Rain = 0
KWE1 110935Z 23010KT 09/04 A2957 RMK A01 T00920036  RH  068%=      5-min Rain = 0
KWE1 110936Z 22009KT 09/04 A2957 RMK A01 T00920036  RH  068%=      5-min Rain = 0
KWE1 110937Z 23010KT 09/04 A2957 RMK A01 T00920035  RH  068%=      5-min Rain = 0
KWE1 110938Z 22009KT 09/04 A2957 RMK A01 T00920035  RH  068%=      5-min Rain = 0
KWE1 110939Z 22009KT 09/04 A2957 RMK A01 T00920035  RH  068%=      5-min Rain = 0
KWE1 110940Z 23009KT 09/04 A2957 RMK A01 T00920035  RH  068%=      5-min Rain = 0
KWE1 110941Z 22008KT 09/04 A2957 RMK A01 T00920035  RH  067%=      5-min Rain = 0
KWE1 110942Z 22007KT 09/04 A2957 RMK A01 T00920035  RH  068%=      5-min Rain = 0
KWE1 110943Z 22008KT 09/04 A2957 RMK A01 T00910035  RH  068%=      5-min Rain = 0
KWE1 110944Z 22007KT 09/04 A2957 RMK A01 T00880035  RH  069%=      5-min Rain = 0
KWE1 110945Z 22007KT 09/04 A2957 RMK A01 T00870035  RH  070%=      5-min Rain = 0
KWE1 110946Z 21007KT 09/04 A2957 RMK A01 T00860035  RH  071%=      5-min Rain = 0
KWE1 110947Z 22007KT 08/04 A2957 RMK A01 T00840036  RH  071%=      5-min Rain = 0
KWE1 110948Z 22008KT 08/04 A2957 RMK A01 T00830036  RH  072%=      5-min Rain = 0
KWE1 110949Z 22008KT 08/04 A2957 RMK A01 T00820036  RH  073%=      5-min Rain = 0
KWE1 110950Z 21009KT 08/04 A2958 RMK A01 T00810036  RH  073%=      5-min Rain = 0
KWE1 110951Z 21008KT 08/04 A2958 RMK A01 T00810036  RH  074%=      5-min Rain = 0
KWE1 110952Z 21006KT 08/04 A2958 RMK A01 T00800036  RH  074%=      5-min Rain = 0
KWE1 110953Z 21007KT 08/04 A2958 RMK A01 T00790036  RH  074%=      5-min Rain = 0
KWE1 110954Z 21008KT 08/04 A2958 RMK A01 T00780036  RH  074%=      5-min Rain = 0
KWE1 110955Z 21008KT 08/04 A2958 RMK A01 T00780036  RH  075%=      5-min Rain = 0
KWE1 110956Z 21008KT 08/04 A2958 RMK A01 T00770036  RH  075%=      5-min Rain = 0
KWE1 110957Z 20009KT 08/04 A2958 RMK A01 T00770037  RH  076%=      5-min Rain = 0
KWE1 110958Z 21009KT 08/04 A2958 RMK A01 T00760037  RH  076%=      5-min Rain = 0
KWE1 110959Z 21010KT 08/04 A2958 RMK A01 T00760037  RH  076%=      5-min Rain = 0
KWE1 111000Z 21010KT 08/04 A2958 RMK A01 T00750037  RH  077%=      5-min Rain = 0
KWE1 111001Z 21009KT 08/04 A2958 RMK A01 T00760037  RH  077%=      5-min Rain = 0
KWE1 111002Z 21009KT 08/04 A2958 RMK A01 T00750037  RH  077%=      5-min Rain = 0
KWE1 111003Z 22009KT 07/04 A2958 RMK A01 T00740036  RH  077%=      5-min Rain = 0
KWE1 111004Z 22010KT 07/04 A2958 RMK A01 T00740037  RH  077%=      5-min Rain = 0
KWE1 111005Z 22009KT 07/04 A2958 RMK A01 T00740037  RH  077%=      5-min Rain = 0
KWE1 111006Z 22009KT 08/04 A2958 RMK A01 T00750037  RH  077%=      5-min Rain = 0
KWE1 111007Z 22010KT 08/04 A2958 RMK A01 T00760037  RH  077%=      5-min Rain = 0
KWE1 111008Z 22009KT 08/04 A2958 RMK A01 T00760037  RH  076%=      5-min Rain = 0
KWE1 111009Z 22010KT 08/04 A2958 RMK A01 T00770037  RH  076%=      5-min Rain = 0
KWE1 111010Z 23009KT 08/04 A2958 RMK A01 T00770037  RH  076%=      5-min Rain = 0
KWE1 111011Z 23009KT 08/04 A2958 RMK A01 T00770036  RH  076%=      5-min Rain = 0
KWE1 111012Z 23009KT 08/04 A2958 RMK A01 T00770036  RH  075%=      5-min Rain = 0
KWE1 111013Z 23010KT 08/04 A2958 RMK A01 T00780036  RH  075%=      5-min Rain = 0
KWE1 111014Z 23011KT 08/04 A2958 RMK A01 T00780036  RH  074%=      5-min Rain = 0
KWE1 111015Z 23011KT 08/04 A2958 RMK A01 T00800036  RH  074%=      5-min Rain = 0
KWE1 111016Z 23012KT 08/04 A2958 RMK A01 T00820036  RH  073%=      5-min Rain = 0
KWE1 111017Z 23013KT 08/04 A2958 RMK A01 T00840036  RH  071%=      5-min Rain = 0
KWE1 111018Z 23014KT 09/04 A2958 RMK A01 T00870035  RH  070%=      5-min Rain = 0
KWE1 111019Z 23013KT 09/04 A2958 RMK A01 T00890035  RH  069%=      5-min Rain = 0
KWE1 111020Z 23014KT 09/04 A2958 RMK A01 T00900035  RH  068%=      5-min Rain = 0
KWE1 111021Z 23014KT 09/03 A2958 RMK A01 T00910034  RH  068%=      5-min Rain = 0
KWE1 111022Z 23014KT 09/03 A2958 RMK A01 T00910034  RH  067%=      5-min Rain = 0
KWE1 111023Z 23014KT 09/03 A2958 RMK A01 T00920034  RH  067%=      5-min Rain = 0
KWE1 111024Z 23014KT 09/03 A2958 RMK A01 T00930033  RH  066%=      5-min Rain = 0
KWE1 111025Z 23014KT 09/03 A2958 RMK A01 T00930033  RH  066%=      5-min Rain = 0
KWE1 111026Z 23014KT 09/03 A2958 RMK A01 T00930033  RH  066%=      5-min Rain = 0
KWE1 111027Z 23014KT 09/03 A2958 RMK A01 T00930033  RH  066%=      5-min Rain = 0
KWE1 111028Z 23012KT 09/03 A2958 RMK A01 T00930033  RH  066%=      5-min Rain = 0
KWE1 111029Z 23013KT 09/03 A2958 RMK A01 T00930033  RH  066%=      5-min Rain = 0
KWE1 111030Z 23014KT 09/03 A2958 RMK A01 T00930033  RH  066%=      5-min Rain = 0
KWE1 111031Z 24013KT 09/03 A2959 RMK A01 T00930033  RH  066%=      5-min Rain = 0
KWE1 111032Z 23013KT 09/03 A2959 RMK A01 T00940032  RH  065%=      5-min Rain = 0
KWE1 111033Z 23013KT 09/03 A2959 RMK A01 T00940032  RH  065%=      5-min Rain = 0
KWE1 111034Z 23013KT 10/03 A2959 RMK A01 T00950032  RH  065%=      5-min Rain = 0
KWE1 111035Z 23013KT 10/03 A2959 RMK A01 T00950032  RH  065%=      5-min Rain = 0
KWE1 111036Z 23013KT 10/03 A2959 RMK A01 T00960032  RH  064%=      5-min Rain = 0
KWE1 111037Z 23014KT 10/03 A2959 RMK A01 T00960032  RH  064%=      5-min Rain = 0
KWE1 111038Z 23013KT 10/03 A2959 RMK A01 T00960032  RH  064%=      5-min Rain = 0
KWE1 111039Z 24013KT 10/03 A2959 RMK A01 T00960032  RH  064%=      5-min Rain = 0
KWE1 111040Z 24013KT 10/03 A2959 RMK A01 T00970032  RH  064%=      5-min Rain = 0
KWE1 111041Z 24014KT 10/03 A2959 RMK A01 T00970031  RH  063%=      5-min Rain = 0
KWE1 111042Z 24012KT 10/03 A2959 RMK A01 T00980031  RH  063%=      5-min Rain = 0
KWE1 111043Z 24011KT 10/03 A2959 RMK A01 T00980031  RH  063%=      5-min Rain = 0
KWE1 111044Z 24011KT 10/03 A2959 RMK A01 T00990032  RH  063%=      5-min Rain = 0
KWE1 111045Z 24012KT 10/03 A2959 RMK A01 T00980031  RH  063%=      5-min Rain = 0
KWE1 111046Z 24012KT 10/03 A2959 RMK A01 T00990031  RH  063%=      5-min Rain = 0
KWE1 111047Z 24012KT 10/03 A2959 RMK A01 T00990031  RH  063%=      5-min Rain = 0
KWE1 111048Z 24012KT 10/03 A2959 RMK A01 T00990031  RH  063%=      5-min Rain = 0
KWE1 111049Z 24014KT 10/03 A2959 RMK A01 T00990031  RH  063%=      5-min Rain = 0
KWE1 111050Z 24013KT 10/03 A2959 RMK A01 T00990031  RH  062%=      5-min Rain = 0
KWE1 111051Z 23013KT 10/03 A2959 RMK A01 T01000031  RH  062%=      5-min Rain = 0
KWE1 111052Z 24014KT 10/03 A2959 RMK A01 T00990031  RH  062%=      5-min Rain = 0
KWE1 111053Z 23014KT 10/03 A296 RMK A01 T00990031  RH  062%=      5-min Rain = 0
KWE1 111054Z 23013KT 10/03 A296 RMK A01 T01000031  RH  062%=      5-min Rain = 0
KWE1 111055Z 24012KT 10/03 A296 RMK A01 T01000031  RH  062%=      5-min Rain = 0
KWE1 111056Z 24013KT 10/03 A2959 RMK A01 T01000031  RH  062%=      5-min Rain = 0
KWE1 111057Z 24013KT 10/03 A2959 RMK A01 T01000031  RH  062%=      5-min Rain = 0
KWE1 111058Z 24013KT 10/03 A2959 RMK A01 T01000031  RH  062%=      5-min Rain = 0
KWE1 111059Z 24014KT 10/03 A296 RMK A01 T01010031  RH  062%=      5-min Rain = 0
KWE1 111100Z 24012KT 10/03 A296 RMK A01 T01010030  RH  061%=      5-min Rain = 0
KWE1 111101Z 24012KT 10/03 A296 RMK A01 T01020031  RH  061%=      5-min Rain = 0
KWE1 111102Z 25013KT 10/03 A296 RMK A01 T01010030  RH  061%=      5-min Rain = 0
KWE1 111103Z 26011KT 10/03 A296 RMK A01 T01030031  RH  061%=      5-min Rain = 0
KWE1 111104Z 25015KT 10/03 A296 RMK A01 T01030030  RH  061%=      5-min Rain = 0
KWE1 111105Z 26016G22KT 11/03 A296 RMK A01 T01060031  RH  059%=      5-min Rain = 0
KWE1 111106Z 26015KT 11/03 A296 RMK A01 T01090031  RH  058%=      5-min Rain = 0
KWE1 111107Z 26013KT 11/03 A296 RMK A01 T01110031  RH  058%=      5-min Rain = 0
KWE1 111108Z 27016G22KT 11/03 A296 RMK A01 T01120030  RH  057%=      5-min Rain = 0
KWE1 111109Z 27021KT 11/03 A296 RMK A01 T01140028  RH  056%=      5-min Rain = 0
KWE1 111110Z 27020KT 12/03 A296 RMK A01 T01180027  RH  054%=      5-min Rain = 0
KWE1 111111Z 27019KT 12/03 A296 RMK A01 T01200027  RH  053%=      5-min Rain = 0
KWE1 111112Z 27021G27KT 12/03 A296 RMK A01 T01200027  RH  053%=      5-min Rain = 0
KWE1 111113Z 28021G27KT 12/03 A2961 RMK A01 T01200025  RH  052%=      5-min Rain = 0
KWE1 111114Z 28021G27KT 12/03 A2961 RMK A01 T01200025  RH  052%=      5-min Rain = 0
KWE1 111115Z 29025KT 12/02 A2961 RMK A01 T01200024  RH  052%=      5-min Rain = 0
KWE1 111116Z 28026G32KT 12/02 A2961 RMK A01 T01200021  RH  051%=      5-min Rain = 0
KWE1 111117Z 29020KT 12/02 A2961 RMK A01 T01210020  RH  050%=      5-min Rain = 0
KWE1 111118Z 29019KT 12/02 A2962 RMK A01 T01200021  RH  051%=      5-min Rain = 0
KWE1 111119Z 29019G24KT 12/02 A2962 RMK A01 T01170024  RH  053%=      5-min Rain = 0
KWE1 111120Z 29018G23KT 12/02 A2962 RMK A01 T01150024  RH  054%=      5-min Rain = 0
KWE1 111121Z 29019KT 11/03 A2962 RMK A01 T01140025  RH  054%=      5-min Rain = 0
KWE1 111122Z 29020KT 11/02 A2962 RMK A01 T01130024  RH  054%=      5-min Rain = 0
KWE1 111123Z 29016KT 11/02 A2962 RMK A01 T01130024  RH  055%=      5-min Rain = 0
KWE1 111124Z 29018G27KT 11/03 A2962 RMK A01 T01100025  RH  056%=      5-min Rain = 0
KWE1 111125Z 30021KT 11/02 A2962 RMK A01 T01090024  RH  056%=      5-min Rain = 0
KWE1 111126Z 30021KT 11/02 A2962 RMK A01 T01090022  RH  055%=      5-min Rain = 0
KWE1 111127Z 30020G25KT 11/02 A2963 RMK A01 T01090022  RH  055%=      5-min Rain = 0
KWE1 111128Z 30020G26KT 11/02 A2963 RMK A01 T01080022  RH  055%=      5-min Rain = 0
KWE1 111129Z 30018KT 11/02 A2963 RMK A01 T01080023  RH  055%=      5-min Rain = 0
KWE1 111130Z 30024G31KT 11/02 A2963 RMK A01 T01070022  RH  056%=      5-min Rain = 0
KWE1 111131Z 31025G32KT 11/02 A2963 RMK A01 T01060020  RH  055%=      5-min Rain = 0
KWE1 111132Z 31027G36KT 11/02 A2963 RMK A01 T01070019  RH  055%=      5-min Rain = 0
KWE1 111133Z 31025G32KT 11/02 A2963 RMK A01 T01060019  RH  055%=      5-min Rain = 0
KWE1 111134Z 31025G32KT 11/02 A2963 RMK A01 T01050019  RH  055%=      5-min Rain = 0
KWE1 111135Z 30023KT 10/02 A2963 RMK A01 T01030020  RH  056%=      5-min Rain = 0
KWE1 111136Z 31027G32KT 10/02 A2963 RMK A01 T01010020  RH  057%=      5-min Rain = 0
KWE1 111137Z 31026G32KT 10/02 A2964 RMK A01 T01000019  RH  057%=      5-min Rain = 0
KWE1 111138Z 30024KT 10/02 A2964 RMK A01 T00990020  RH  058%=      5-min Rain = 0
KWE1 111139Z 31024KT 10/02 A2964 RMK A01 T00980021  RH  059%=      5-min Rain = 0
KWE1 111140Z 31023KT 10/02 A2964 RMK A01 T00970020  RH  059%=      5-min Rain = 0
KWE1 111141Z 31023G29KT 10/02 A2964 RMK A01 T00960021  RH  059%=      5-min Rain = 0
KWE1 111142Z 31023G32KT 10/02 A2965 RMK A01 T00950020  RH  059%=      5-min Rain = 0
KWE1 111143Z 31023G32KT 10/02 A2965 RMK A01 T00950020  RH  059%=      5-min Rain = 0
KWE1 111144Z 31022KT 10/02 A2965 RMK A01 T00950020  RH  060%=      5-min Rain = 0
KWE1 111145Z 31021KT 09/02 A2965 RMK A01 T00940020  RH  060%=      5-min Rain = 0
KWE1 111146Z 31023KT 09/02 A2965 RMK A01 T00940020  RH  060%=      5-min Rain = 0
KWE1 111147Z 31022G30KT 09/02 A2965 RMK A01 T00940019  RH  060%=      5-min Rain = 0
KWE1 111148Z 32021KT 09/02 A2965 RMK A01 T00930020  RH  060%=      5-min Rain = 0
KWE1 111149Z 31022G27KT 09/02 A2965 RMK A01 T00920020  RH  061%=      5-min Rain = 0
KWE1 111150Z 32022KT 09/02 A2965 RMK A01 T00920019  RH  060%=      5-min Rain = 0
KWE1 111151Z 32018G24KT 09/02 A2965 RMK A01 T00920020  RH  061%=      5-min Rain = 0
KWE1 111152Z 32020G26KT 09/02 A2966 RMK A01 T00900020  RH  061%=      5-min Rain = 0
KWE1 111153Z 32017G22KT 09/02 A2966 RMK A01 T00900020  RH  062%=      5-min Rain = 0
KWE1 111154Z 32016KT 09/02 A2966 RMK A01 T00890020  RH  062%=      5-min Rain = 0
KWE1 111155Z 32020KT 09/02 A2967 RMK A01 T00880020  RH  062%=      5-min Rain = 0
KWE1 111156Z 32017KT 09/02 A2967 RMK A01 T00880020  RH  062%=      5-min Rain = 0
KWE1 111157Z 31018KT 09/02 A2967 RMK A01 T00880020  RH  063%=      5-min Rain = 0
KWE1 111158Z 32018KT 09/02 A2967 RMK A01 T00870020  RH  063%=      5-min Rain = 0
KWE1 111159Z 32017KT 09/02 A2967 RMK A01 T00870020  RH  063%=      5-min Rain = 0
KWE1 111200Z 32016G21KT 09/02 A2968 RMK A01 T00860020  RH  063%=      5-min Rain = 0
KWE1 111201Z 32018KT 09/02 A2967 RMK A01 T00850020  RH  064%=      5-min Rain = 0
KWE1 111202Z 32017G22KT 09/02 A2968 RMK A01 T00850021  RH  064%=      5-min Rain = 0
KWE1 111203Z 32022KT 08/02 A2968 RMK A01 T00840020  RH  064%=      5-min Rain = 0
KWE1 111204Z 32022G30KT 08/02 A2968 RMK A01 T00840019  RH  064%=      5-min Rain = 0
KWE1 111205Z 33022KT 08/02 A2967 RMK A01 T00830018  RH  064%=      5-min Rain = 0
KWE1 111206Z 32018G24KT 08/02 A2968 RMK A01 T00820017  RH  064%=      5-min Rain = 0
KWE1 111207Z 33019KT 08/02 A2968 RMK A01 T00810018  RH  064%=      5-min Rain = 0
KWE1 111208Z 32016G26KT 08/02 A2968 RMK A01 T00800018  RH  065%=      5-min Rain = 0
KWE1 111209Z 32021G27KT 08/02 A2968 RMK A01 T00790018  RH  065%=      5-min Rain = 0
KWE1 111210Z 33021KT 08/02 A2968 RMK A01 T00780016  RH  065%=      5-min Rain = 0
KWE1 111211Z 33023G30KT 08/02 A2968 RMK A01 T00780016  RH  065%=      5-min Rain = 0
KWE1 111212Z 33023G28KT 08/02 A2968 RMK A01 T00780015  RH  064%=      5-min Rain = 0
KWE1 111213Z 33022G28KT 08/01 A2968 RMK A01 T00780014  RH  064%=      5-min Rain = 0
KWE1 111214Z 33020G26KT 08/01 A2968 RMK A01 T00780014  RH  064%=      5-min Rain = 0
KWE1 111215Z 34021G27KT 08/02 A2968 RMK A01 T00780015  RH  064%=      5-min Rain = 0
KWE1 111216Z 33021G27KT 08/02 A2968 RMK A01 T00770015  RH  065%=      5-min Rain = 0
KWE1 111217Z 33020G26KT 08/02 A2969 RMK A01 T00770015  RH  065%=      5-min Rain = 0
KWE1 111218Z 34020KT 08/02 A2969 RMK A01 T00760015  RH  065%=      5-min Rain = 0
KWE1 111219Z 34020KT 08/02 A2969 RMK A01 T00750016  RH  066%=      5-min Rain = 0
KWE1 111220Z 34023KT 07/02 A2969 RMK A01 T00740016  RH  066%=      5-min Rain = 0
KWE1 111221Z 34021KT 07/02 A2969 RMK A01 T00740016  RH  066%=      5-min Rain = 0
KWE1 111222Z 34023KT 07/02 A2969 RMK A01 T00740016  RH  067%=      5-min Rain = 0
KWE1 111223Z 34019KT 07/02 A2969 RMK A01 T00740016  RH  067%=      5-min Rain = 0
KWE1 111224Z 34019KT 07/02 A2969 RMK A01 T00740016  RH  067%=      5-min Rain = 0
KWE1 111225Z 34019KT 07/02 A2969 RMK A01 T00730017  RH  067%=      5-min Rain = 0
KWE1 111226Z 34017G23KT 07/02 A297 RMK A01 T00730017  RH  067%=      5-min Rain = 0
KWE1 111227Z 34019KT 07/02 A297 RMK A01 T00730017  RH  067%=      5-min Rain = 0
KWE1 111228Z 33019G25KT 07/02 A297 RMK A01 T00730016  RH  067%=      5-min Rain = 0
KWE1 111229Z 33021KT 07/02 A297 RMK A01 T00730015  RH  067%=      5-min Rain = 0
KWE1 111230Z 32022G29KT 07/01 A297 RMK A01 T00730014  RH  066%=      5-min Rain = 0
KWE1 111231Z 33026G33KT 07/01 A2971 RMK A01 T00740012  RH  065%=      5-min Rain = 0
KWE1 111232Z 33027G33KT 07/01 A2971 RMK A01 T00720009  RH  064%=      5-min Rain = 0
KWE1 111233Z 33024G31KT 07/01 A2971 RMK A01 T00700007  RH  064%=      5-min Rain = 0
KWE1 111234Z 33026G34KT 07/01 A2971 RMK A01 T00680006  RH  065%=      5-min Rain = 0
KWE1 111235Z 33025G31KT 07/01 A2971 RMK A01 T00660005  RH  065%=      5-min Rain = 0
KWE1 111236Z 33026G31KT 07/00 A2971 RMK A01 T00650004  RH  065%=      5-min Rain = 0
KWE1 111237Z 33024G33KT 07/00 A2972 RMK A01 T00650004  RH  065%=      5-min Rain = 0
KWE1 111238Z 34026KT 06/00 A2972 RMK A01 T00630004  RH  066%=      5-min Rain = 0
KWE1 111239Z 34022G29KT 06/00 A2972 RMK A01 T00620004  RH  066%=      5-min Rain = 0
KWE1 111240Z 34025G32KT 06/00 A2972 RMK A01 T00610004  RH  067%=      5-min Rain = 0
KWE1 111241Z 34026KT 06/00 A2972 RMK A01 T00610003  RH  066%=      5-min Rain = 0
KWE1 111242Z 34028KT 06/00 A2972 RMK A01 T00610002  RH  066%=      5-min Rain = 0
KWE1 111243Z 34024G31KT 06/00 A2973 RMK A01 T00610001  RH  066%=      5-min Rain = 0
KWE1 111244Z 34024G29KT 06/00 A2973 RMK A01 T00600002  RH  066%=      5-min Rain = 0
KWE1 111245Z 34024G32KT 06/00 A2973 RMK A01 T00600002  RH  066%=      5-min Rain = 0
KWE1 111246Z 34029G34KT 06/00 A2973 RMK A01 T00590001  RH  066%=      5-min Rain = 0
KWE1 111247Z 33025G31KT 06/00 A2973 RMK A01 T005900-0  RH  066%=      5-min Rain = 0
KWE1 111248Z 33020KT 06/00 A2974 RMK A01 T00590001  RH  066%=      5-min Rain = 0
KWE1 111249Z 33020G27KT 06/00 A2974 RMK A01 T00590001  RH  067%=      5-min Rain = 0
KWE1 111250Z 33020G25KT 06/00 A2974 RMK A01 T00580001  RH  067%=      5-min Rain = 0
KWE1 111251Z 33019G26KT 06/00 A2974 RMK A01 T00580001  RH  067%=      5-min Rain = 0
KWE1 111252Z 33021G27KT 06/M00 A2974 RMK A01 T00581001  RH  066%=      5-min Rain = 0
KWE1 111253Z 33023G28KT 06/M00 A2974 RMK A01 T00571002  RH  066%=      5-min Rain = 0
KWE1 111254Z 33020G27KT 06/M00 A2975 RMK A01 T00571003  RH  065%=      5-min Rain = 0
KWE1 111255Z 33023G30KT 06/M00 A2975 RMK A01 T00561003  RH  065%=      5-min Rain = 0
KWE1 111256Z 33021G26KT 06/M00 A2975 RMK A01 T00561004  RH  065%=      5-min Rain = 0
KWE1 111257Z 33021G29KT 06/M00 A2975 RMK A01 T00561004  RH  065%=      5-min Rain = 0
KWE1 111258Z 33019G27KT 06/M00 A2976 RMK A01 T00561004  RH  065%=      5-min Rain = 0
KWE1 111259Z 33024G30KT 06/M01 A2976 RMK A01 T00551005  RH  065%=      5-min Rain = 0
KWE1 111300Z 33020G25KT 06/M01 A2976 RMK A01 T00551006  RH  065%=      5-min Rain = 0
KWE1 111301Z 33020G25KT 06/M01 A2976 RMK A01 T00551006  RH  065%=      5-min Rain = 0
KWE1 111302Z 33019G25KT 06/M01 A2977 RMK A01 T00551005  RH  065%=      5-min Rain = 0
KWE1 111303Z 33020G27KT 05/M01 A2977 RMK A01 T00541005  RH  066%=      5-min Rain = 0
KWE1 111304Z 33023KT 05/M01 A2977 RMK A01 T00541005  RH  066%=      5-min Rain = 0
KWE1 111305Z 33021G27KT 05/M01 A2977 RMK A01 T00541006  RH  065%=      5-min Rain = 0
KWE1 111306Z 34015KT 05/M01 A2977 RMK A01 T00531005  RH  066%=      5-min Rain = 0
KWE1 111307Z 34019KT 05/M00 A2977 RMK A01 T00521004  RH  067%=      5-min Rain = 0
KWE1 111308Z 34018G24KT 05/M00 A2978 RMK A01 T00521004  RH  067%=      5-min Rain = 0
KWE1 111309Z 33018KT 05/M01 A2978 RMK A01 T00521005  RH  066%=      5-min Rain = 0
KWE1 111310Z 33020KT 05/M01 A2978 RMK A01 T00521006  RH  066%=      5-min Rain = 0
KWE1 111311Z 33020G26KT 05/M01 A2978 RMK A01 T00521007  RH  066%=      5-min Rain = 0
KWE1 111312Z 33018KT 05/M01 A2978 RMK A01 T00521007  RH  066%=      5-min Rain = 0
KWE1 111313Z 33020G28KT 05/M01 A2978 RMK A01 T00511007  RH  066%=      5-min Rain = 0
KWE1 111314Z 34023G28KT 05/M01 A2978 RMK A01 T00511008  RH  066%=      5-min Rain = 0
KWE1 111315Z 34022G28KT 05/M01 A2979 RMK A01 T00511008  RH  066%=      5-min Rain = 0
KWE1 111316Z 34025KT 05/M01 A2979 RMK A01 T00501009  RH  066%=      5-min Rain = 0
KWE1 111317Z 34026G31KT 05/M01 A2979 RMK A01 T00501009  RH  065%=      5-min Rain = 0
KWE1 111318Z 34027G32KT 05/M01 A2979 RMK A01 T00501010  RH  065%=      5-min Rain = 0
KWE1 111319Z 34027KT 05/M01 A2979 RMK A01 T00501011  RH  065%=      5-min Rain = 0
KWE1 111320Z 35025KT 05/M01 A2979 RMK A01 T00501011  RH  064%=      5-min Rain = 0
KWE1 111321Z 35022G29KT 05/M01 A2979 RMK A01 T00501011  RH  065%=      5-min Rain = 0
KWE1 111322Z 34023KT 05/M01 A2979 RMK A01 T00491011  RH  065%=      5-min Rain = 0
KWE1 111323Z 35022G27KT 05/M01 A2979 RMK A01 T00491011  RH  065%=      5-min Rain = 0
KWE1 111324Z 35022KT 05/M01 A298 RMK A01 T00491011  RH  065%=      5-min Rain = 0
KWE1 111325Z 35020G25KT 05/M01 A298 RMK A01 T00481010  RH  066%=      5-min Rain = 0
KWE1 111326Z 34021KT 05/M01 A298 RMK A01 T00471011  RH  066%=      5-min Rain = 0
KWE1 111327Z 34020KT 05/M01 A298 RMK A01 T00471010  RH  066%=      5-min Rain = 0
KWE1 111328Z 35022KT 05/M01 A298 RMK A01 T00471010  RH  066%=      5-min Rain = 0
KWE1 111329Z 34021KT 05/M01 A298 RMK A01 T00471011  RH  066%=      5-min Rain = 0
KWE1 111330Z 34019KT 05/M01 A298 RMK A01 T00471011  RH  066%=      5-min Rain = 0
KWE1 111331Z 34017KT 05/M01 A298 RMK A01 T00461010  RH  067%=      5-min Rain = 0
KWE1 111332Z 34016KT 05/M01 A298 RMK A01 T00461009  RH  068%=      5-min Rain = 0
KWE1 111333Z 34019KT 05/M01 A298 RMK A01 T00451009  RH  068%=      5-min Rain = 0
KWE1 111334Z 34021KT 05/M01 A298 RMK A01 T00451011  RH  067%=      5-min Rain = 0
KWE1 111335Z 33017KT 05/M01 A298 RMK A01 T00461011  RH  066%=      5-min Rain = 0
KWE1 111336Z 34016G21KT 05/M01 A298 RMK A01 T00461011  RH  067%=      5-min Rain = 0
KWE1 111337Z 33018KT 05/M01 A298 RMK A01 T00461010  RH  067%=      5-min Rain = 0
KWE1 111338Z 34019KT 05/M01 A298 RMK A01 T00461011  RH  066%=      5-min Rain = 0
KWE1 111339Z 34017G22KT 05/M01 A2981 RMK A01 T00471012  RH  066%=      5-min Rain = 0
KWE1 111340Z 34022KT 05/M01 A2981 RMK A01 T00471012  RH  066%=      5-min Rain = 0
KWE1 111341Z 34022G27KT 05/M01 A2981 RMK A01 T00471013  RH  065%=      5-min Rain = 0
KWE1 111342Z 34023G28KT 05/M01 A2981 RMK A01 T00471013  RH  065%=      5-min Rain = 0
KWE1 111343Z 34020G25KT 05/M01 A2981 RMK A01 T00461013  RH  065%=      5-min Rain = 0
KWE1 111344Z 34022G28KT 05/M01 A2982 RMK A01 T00461013  RH  066%=      5-min Rain = 0
KWE1 111345Z 34024G29KT 05/M01 A2982 RMK A01 T00461013  RH  066%=      5-min Rain = 0
KWE1 111346Z 34022KT 05/M01 A2982 RMK A01 T00461013  RH  065%=      5-min Rain = 0
KWE1 111347Z 34022G27KT 05/M01 A2982 RMK A01 T00451013  RH  066%=      5-min Rain = 0
KWE1 111348Z 34026KT 05/M01 A2982 RMK A01 T00451014  RH  066%=      5-min Rain = 0
KWE1 111349Z 34023KT 05/M02 A2982 RMK A01 T00451015  RH  065%=      5-min Rain = 0
KWE1 111350Z 34024G30KT 05/M01 A2982 RMK A01 T00461014  RH  065%=      5-min Rain = 0
KWE1 111351Z 34025KT 05/M01 A2982 RMK A01 T00461014  RH  065%=      5-min Rain = 0
KWE1 111352Z 34021KT 05/M01 A2983 RMK A01 T00451014  RH  065%=      5-min Rain = 0
KWE1 111353Z 33022G27KT 05/M02 A2983 RMK A01 T00451015  RH  065%=      5-min Rain = 0
KWE1 111354Z 34021KT 05/M02 A2983 RMK A01 T00451017  RH  064%=      5-min Rain = 0
KWE1 111355Z 34019G25KT 05/M02 A2983 RMK A01 T00451016  RH  065%=      5-min Rain = 0
KWE1 111356Z 33020G27KT 04/M02 A2983 RMK A01 T00441016  RH  065%=      5-min Rain = 0
KWE1 111357Z 34020KT 04/M02 A2984 RMK A01 T00441015  RH  065%=      5-min Rain = 0
KWE1 111358Z 34018KT 04/M02 A2984 RMK A01 T00431015  RH  066%=      5-min Rain = 0
KWE1 111359Z 34015KT 04/M01 A2984 RMK A01 T00431014  RH  067%=      5-min Rain = 0
KWE1 111400Z 33014KT 04/M01 A2984 RMK A01 T00421013  RH  067%=      5-min Rain = 0
KWE1 111401Z 34015G20KT 04/M01 A2984 RMK A01 T00421012  RH  068%=      5-min Rain = 0
KWE1 111402Z 34021KT 04/M01 A2985 RMK A01 T00421013  RH  067%=      5-min Rain = 0
KWE1 111403Z 33021G28KT 04/M02 A2985 RMK A01 T00421017  RH  066%=      5-min Rain = 0
KWE1 111404Z 33021G27KT 04/M02 A2985 RMK A01 T00411019  RH  065%=      5-min Rain = 0
KWE1 111405Z 34023KT 04/M02 A2985 RMK A01 T00401020  RH  065%=      5-min Rain = 0
KWE1 111406Z 34025G30KT 04/M02 A2985 RMK A01 T00391021  RH  065%=      5-min Rain = 0
KWE1 111407Z 33022G28KT 04/M02 A2986 RMK A01 T00381022  RH  065%=      5-min Rain = 0
KWE1 111408Z 34023KT 04/M02 A2986 RMK A01 T00381022  RH  065%=      5-min Rain = 0
KWE1 111409Z 34022G27KT 04/M02 A2986 RMK A01 T00371021  RH  066%=      5-min Rain = 0
KWE1 111410Z 34024G32KT 04/M02 A2986 RMK A01 T00371021  RH  066%=      5-min Rain = 0
KWE1 111411Z 34029KT 04/M02 A2986 RMK A01 T00371022  RH  066%=      5-min Rain = 0
KWE1 111412Z 34025G31KT 04/M02 A2986 RMK A01 T00371023  RH  065%=      5-min Rain = 0
KWE1 111413Z 35027G33KT 04/M02 A2986 RMK A01 T00361022  RH  066%=      5-min Rain = 0
KWE1 111414Z 35025G30KT 04/M02 A2986 RMK A01 T00361024  RH  065%=      5-min Rain = 0
KWE1 111415Z 35024KT 04/M02 A2986 RMK A01 T00361023  RH  066%=      5-min Rain = 0
KWE1 111416Z 34023KT 04/M02 A2986 RMK A01 T00351022  RH  066%=      5-min Rain = 0
KWE1 111417Z 34019KT 04/M02 A2986 RMK A01 T00351021  RH  067%=      5-min Rain = 0
KWE1 111418Z 34020G25KT 04/M02 A2986 RMK A01 T00351020  RH  067%=      5-min Rain = 0
KWE1 111419Z 34023KT 04/M02 A2986 RMK A01 T00351021  RH  067%=      5-min Rain = 0
KWE1 111420Z 34024KT 03/M02 A2987 RMK A01 T00341022  RH  067%=      5-min Rain = 0
KWE1 111421Z 34021KT 03/M02 A2987 RMK A01 T00341023  RH  066%=      5-min Rain = 0
KWE1 111422Z 35020KT 03/M02 A2987 RMK A01 T00341023  RH  066%=      5-min Rain = 0
KWE1 111423Z 34020KT 03/M02 A2987 RMK A01 T00341022  RH  067%=      5-min Rain = 0
KWE1 111424Z 34021KT 03/M02 A2987 RMK A01 T00341022  RH  067%=      5-min Rain = 0
KWE1 111425Z 34018G24KT 03/M02 A2987 RMK A01 T00341022  RH  066%=      5-min Rain = 0
KWE1 111426Z 34024G29KT 03/M02 A2988 RMK A01 T00341023  RH  066%=      5-min Rain = 0
KWE1 111427Z 34020G26KT 04/M02 A2988 RMK A01 T00351024  RH  066%=      5-min Rain = 0
KWE1 111428Z 33023G28KT 04/M03 A2988 RMK A01 T00351025  RH  065%=      5-min Rain = 0
KWE1 111429Z 34026G32KT 03/M03 A2988 RMK A01 T00341027  RH  064%=      5-min Rain = 0
KWE1 111430Z 34024KT 03/M03 A2988 RMK A01 T00331030  RH  063%=      5-min Rain = 0
KWE1 111431Z 33020G26KT 03/M03 A2988 RMK A01 T00321030  RH  064%=      5-min Rain = 0
KWE1 111432Z 33022G28KT 03/M03 A2988 RMK A01 T00311031  RH  064%=      5-min Rain = 0
KWE1 111433Z 33023KT 03/M03 A2989 RMK A01 T00301033  RH  063%=      5-min Rain = 0
KWE1 111434Z 33024G33KT 03/M03 A2989 RMK A01 T00291034  RH  063%=      5-min Rain = 0
KWE1 111435Z 33022G28KT 03/M03 A2989 RMK A01 T00281033  RH  064%=      5-min Rain = 0
KWE1 111436Z 33025G31KT 03/M04 A2989 RMK A01 T00271035  RH  064%=      5-min Rain = 0
KWE1 111437Z 33025G31KT 03/M04 A2989 RMK A01 T00271037  RH  063%=      5-min Rain = 0
KWE1 111438Z 33020KT 03/M04 A299 RMK A01 T00261038  RH  063%=      5-min Rain = 0
KWE1 111439Z 33020G26KT 03/M04 A299 RMK A01 T00251038  RH  063%=      5-min Rain = 0
KWE1 111440Z 33025G33KT 03/M04 A299 RMK A01 T00251039  RH  063%=      5-min Rain = 0
KWE1 111441Z 33025G32KT 02/M04 A299 RMK A01 T00241041  RH  062%=      5-min Rain = 0
KWE1 111442Z 33024G32KT 02/M04 A299 RMK A01 T00241042  RH  062%=      5-min Rain = 0
KWE1 111443Z 33028G33KT 02/M04 A299 RMK A01 T00241043  RH  061%=      5-min Rain = 0
KWE1 111444Z 33020G25KT 02/M04 A299 RMK A01 T00241044  RH  061%=      5-min Rain = 0
KWE1 111445Z 33020G26KT 02/M04 A299 RMK A01 T00241042  RH  062%=      5-min Rain = 0
KWE1 111446Z 33021G28KT 02/M04 A2991 RMK A01 T00231043  RH  062%=      5-min Rain = 0
KWE1 111447Z 33025KT 02/M04 A2991 RMK A01 T00231043  RH  061%=      5-min Rain = 0
KWE1 111448Z 33022G30KT 02/M04 A2991 RMK A01 T00241044  RH  061%=      5-min Rain = 0
KWE1 111449Z 33021G29KT 02/M04 A2991 RMK A01 T00231044  RH  061%=      5-min Rain = 0
KWE1 111450Z 33024G29KT 02/M04 A2991 RMK A01 T00231044  RH  061%=      5-min Rain = 0
KWE1 111451Z 33020G25KT 02/M04 A2991 RMK A01 T00231044  RH  061%=      5-min Rain = 0
KWE1 111452Z 34022KT 02/M04 A2991 RMK A01 T00231044  RH  062%=      5-min Rain = 0
KWE1 111453Z 33023KT 02/M04 A2991 RMK A01 T00231044  RH  061%=      5-min Rain = 0
KWE1 111454Z 33018KT 02/M05 A2991 RMK A01 T00221045  RH  061%=      5-min Rain = 0
KWE1 111455Z 34022G27KT 02/M04 A2991 RMK A01 T00221044  RH  062%=      5-min Rain = 0
KWE1 111456Z 34022G27KT 02/M04 A2992 RMK A01 T00211044  RH  062%=      5-min Rain = 0
KWE1 111457Z 34020KT 02/M04 A2992 RMK A01 T00211044  RH  062%=      5-min Rain = 0
KWE1 111458Z 34022G29KT 02/M05 A2992 RMK A01 T00211045  RH  062%=      5-min Rain = 0
KWE1 111459Z 34021KT 02/M05 A2992 RMK A01 T00201045  RH  062%=      5-min Rain = 0
KWE1 111500Z 33024G31KT 02/M04 A2992 RMK A01 T00201044  RH  063%=      5-min Rain = 0
KWE1 111501Z 35029G34KT 02/M05 A2992 RMK A01 T00191046  RH  062%=      5-min Rain = 0
KWE1 111502Z 35029KT 02/M05 A2992 RMK A01 T00191049  RH  061%=      5-min Rain = 0
KWE1 111503Z 35029KT 02/M05 A2992 RMK A01 T00191049  RH  061%=      5-min Rain = 0
KWE1 111504Z 34027G33KT 02/M05 A2992 RMK A01 T00181050  RH  060%=      5-min Rain = 0
KWE1 111505Z 34025G30KT 02/M05 A2992 RMK A01 T00181049  RH  061%=      5-min Rain = 0
KWE1 111506Z 34022G27KT 02/M05 A2992 RMK A01 T00181049  RH  061%=      5-min Rain = 0
KWE1 111507Z 34022KT 02/M05 A2992 RMK A01 T00181048  RH  062%=      5-min Rain = 0
KWE1 111508Z 35026G35KT 02/M05 A2993 RMK A01 T00181047  RH  062%=      5-min Rain = 0
KWE1 111509Z 35023G28KT 02/M05 A2993 RMK A01 T00181049  RH  061%=      5-min Rain = 0
KWE1 111510Z 34027G33KT 02/M05 A2993 RMK A01 T00181049  RH  061%=      5-min Rain = 0
KWE1 111511Z 34028KT 02/M05 A2993 RMK A01 T00181050  RH  061%=      5-min Rain = 0
KWE1 111512Z 34027KT 02/M05 A2993 RMK A01 T00181051  RH  060%=      5-min Rain = 0
KWE1 111513Z 34024G30KT 02/M05 A2993 RMK A01 T00171051  RH  061%=      5-min Rain = 0
KWE1 111514Z 35026G31KT 02/M05 A2993 RMK A01 T00171050  RH  061%=      5-min Rain = 0
KWE1 111515Z 35026KT 02/M05 A2993 RMK A01 T00171050  RH  061%=      5-min Rain = 0
KWE1 111516Z 35025KT 02/M05 A2994 RMK A01 T00171050  RH  061%=      5-min Rain = 0
KWE1 111517Z 35025KT 02/M05 A2994 RMK A01 T00161051  RH  061%=      5-min Rain = 0
KWE1 111518Z 35024KT 02/M05 A2994 RMK A01 T00161050  RH  061%=      5-min Rain = 0
KWE1 111519Z 35024KT 02/M05 A2994 RMK A01 T00161050  RH  061%=      5-min Rain = 0
KWE1 111520Z 35021KT 02/M05 A2994 RMK A01 T00161050  RH  061%=      5-min Rain = 0
KWE1 111521Z 35023KT 02/M05 A2994 RMK A01 T00161050  RH  062%=      5-min Rain = 0
KWE1 111522Z 35026G31KT 02/M05 A2994 RMK A01 T00161051  RH  061%=      5-min Rain = 0
KWE1 111523Z 35022KT 02/M05 A2994 RMK A01 T00161053  RH  060%=      5-min Rain = 0
KWE1 111524Z 35025G30KT 02/M05 A2994 RMK A01 T00161052  RH  061%=      5-min Rain = 0
KWE1 111525Z 35027G32KT 02/M05 A2994 RMK A01 T00171052  RH  060%=      5-min Rain = 0
KWE1 111526Z 35024KT 02/M05 A2994 RMK A01 T00161053  RH  060%=      5-min Rain = 0
KWE1 111527Z 35022KT 02/M05 A2995 RMK A01 T00171051  RH  061%=      5-min Rain = 0
KWE1 111528Z 36022KT 02/M05 A2995 RMK A01 T00171050  RH  061%=      5-min Rain = 0
KWE1 111529Z 35019KT 02/M05 A2995 RMK A01 T00161050  RH  061%=      5-min Rain = 0
KWE1 111530Z 34020G25KT 02/M05 A2995 RMK A01 T00161049  RH  062%=      5-min Rain = 0
KWE1 111531Z 35021KT 02/M05 A2995 RMK A01 T00171050  RH  061%=      5-min Rain = 0
KWE1 111532Z 36023KT 02/M05 A2995 RMK A01 T00171050  RH  061%=      5-min Rain = 0
KWE1 111533Z 35019KT 02/M05 A2995 RMK A01 T00161052  RH  061%=      5-min Rain = 0
KWE1 111534Z 35021KT 02/M05 A2995 RMK A01 T00161051  RH  061%=      5-min Rain = 0
KWE1 111535Z 35023G28KT 02/M05 A2996 RMK A01 T00171051  RH  061%=      5-min Rain = 0
KWE1 111536Z 35020KT 02/M05 A2996 RMK A01 T00171050  RH  061%=      5-min Rain = 0
KWE1 111537Z 35020G27KT 02/M05 A2996 RMK A01 T00171049  RH  062%=      5-min Rain = 0
KWE1 111538Z 36023KT 02/M05 A2996 RMK A01 T00171050  RH  061%=      5-min Rain = 0
KWE1 111539Z 35024G29KT 02/M05 A2996 RMK A01 T00171052  RH  060%=      5-min Rain = 0
KWE1 111540Z 35021G26KT 02/M05 A2996 RMK A01 T00171051  RH  060%=      5-min Rain = 0
KWE1 111541Z 35022G27KT 02/M05 A2996 RMK A01 T00171051  RH  061%=      5-min Rain = 0
KWE1 111542Z 35022G28KT 02/M05 A2996 RMK A01 T00171051  RH  060%=      5-min Rain = 0
KWE1 111543Z 35022G27KT 02/M05 A2997 RMK A01 T00171051  RH  060%=      5-min Rain = 0
KWE1 111544Z 35021KT 02/M05 A2997 RMK A01 T00181051  RH  060%=      5-min Rain = 0
KWE1 111545Z 35018G23KT 02/M05 A2997 RMK A01 T00181050  RH  061%=      5-min Rain = 0
KWE1 111546Z 35022G27KT 02/M05 A2997 RMK A01 T00181049  RH  061%=      5-min Rain = 0
KWE1 111547Z 35022KT 02/M05 A2997 RMK A01 T00181050  RH  061%=      5-min Rain = 0
KWE1 111548Z 34018KT 02/M05 A2997 RMK A01 T00181049  RH  061%=      5-min Rain = 0
KWE1 111549Z 35016KT 02/M05 A2997 RMK A01 T00181047  RH  062%=      5-min Rain = 0
KWE1 111550Z 35019KT 02/M05 A2997 RMK A01 T00181045  RH  063%=      5-min Rain = 0
KWE1 111551Z 35019G26KT 02/M05 A2997 RMK A01 T00181046  RH  062%=      5-min Rain = 0
KWE1 111552Z 35022KT 02/M05 A2997 RMK A01 T00181046  RH  062%=      5-min Rain = 0
KWE1 111553Z 35025KT 02/M05 A2997 RMK A01 T00181047  RH  062%=      5-min Rain = 0
KWE1 111554Z 35027KT 02/M05 A2998 RMK A01 T00191048  RH  061%=      5-min Rain = 0
KWE1 111555Z 34022G27KT 02/M05 A2997 RMK A01 T00191050  RH  060%=      5-min Rain = 0
KWE1 111556Z 34015KT 02/M05 A2998 RMK A01 T00191048  RH  061%=      5-min Rain = 0
KWE1 111557Z 34017KT 02/M05 A2998 RMK A01 T00191045  RH  063%=      5-min Rain = 0
KWE1 111558Z 33021G27KT 02/M04 A2998 RMK A01 T00191044  RH  063%=      5-min Rain = 0
KWE1 111559Z 34023KT 02/M05 A2998 RMK A01 T00181045  RH  063%=      5-min Rain = 0
KWE1 111600Z 34022G27KT 02/M05 A2998 RMK A01 T00171046  RH  063%=      5-min Rain = 0
KWE1 111601Z 34022KT 02/M05 A2998 RMK A01 T00161045  RH  064%=      5-min Rain = 0
KWE1 111602Z 34023KT 02/M05 A2998 RMK A01 T00151046  RH  064%=      5-min Rain = 0
KWE1 111603Z 34019G24KT 02/M05 A2998 RMK A01 T00151045  RH  064%=      5-min Rain = 0
KWE1 111604Z 34024KT 02/M05 A2998 RMK A01 T00151045  RH  064%=      5-min Rain = 0
KWE1 111605Z 34021KT 01/M05 A2998 RMK A01 T00141046  RH  064%=      5-min Rain = 0
KWE1 111606Z 34018G23KT 01/M05 A2999 RMK A01 T00141045  RH  065%=      5-min Rain = 0
KWE1 111607Z 34022KT 01/M05 A2999 RMK A01 T00141045  RH  065%=      5-min Rain = 0
KWE1 111608Z 34019KT 01/M05 A2999 RMK A01 T00141045  RH  064%=      5-min Rain = 0
KWE1 111609Z 34022G27KT 01/M05 A2999 RMK A01 T00141045  RH  065%=      5-min Rain = 0
KWE1 111610Z 33022KT 01/M05 A2999 RMK A01 T00141045  RH  065%=      5-min Rain = 0
KWE1 111611Z 33017G22KT 01/M05 A2999 RMK A01 T00141046  RH  064%=      5-min Rain = 0
KWE1 111612Z 34021G27KT 01/M05 A2999 RMK A01 T00141047  RH  064%=      5-min Rain = 0
KWE1 111613Z 34020KT 01/M05 A2999 RMK A01 T00141047  RH  064%=      5-min Rain = 0
KWE1 111614Z 33022KT 01/M05 A2999 RMK A01 T00141047  RH  064%=      5-min Rain = 0
KWE1 111615Z 34023G28KT 01/M05 A2999 RMK A01 T00131048  RH  063%=      5-min Rain = 0
KWE1 111616Z 34019KT 01/M05 A2999 RMK A01 T00131048  RH  064%=      5-min Rain = 0
KWE1 111617Z 33017G23KT 01/M05 A30 RMK A01 T00131047  RH  064%=      5-min Rain = 0
KWE1 111618Z 34021KT 01/M05 A30 RMK A01 T00141046  RH  064%=      5-min Rain = 0
KWE1 111619Z 34022KT 01/M05 A30 RMK A01 T00131047  RH  064%=      5-min Rain = 0
KWE1 111620Z 34021KT 01/M05 A30 RMK A01 T00131048  RH  064%=      5-min Rain = 0
KWE1 111621Z 34017G22KT 01/M05 A30 RMK A01 T00131047  RH  064%=      5-min Rain = 0
KWE1 111622Z 34018G23KT 01/M05 A30 RMK A01 T00141045  RH  065%=      5-min Rain = 0
KWE1 111623Z 34017KT 01/M05 A30 RMK A01 T00141046  RH  065%=      5-min Rain = 0
KWE1 111624Z 34018KT 01/M04 A30 RMK A01 T00141044  RH  065%=      5-min Rain = 0
KWE1 111625Z 35017KT 02/M04 A30 RMK A01 T00151043  RH  065%=      5-min Rain = 0
KWE1 111626Z 35021G27KT 02/M04 A30 RMK A01 T00151044  RH  065%=      5-min Rain = 0
KWE1 111627Z 35020KT 02/M05 A30 RMK A01 T00151046  RH  064%=      5-min Rain = 0
KWE1 111628Z 34018KT 02/M04 A3001 RMK A01 T00161044  RH  065%=      5-min Rain = 0
KWE1 111629Z 34022G29KT 02/M04 A3001 RMK A01 T00161043  RH  065%=      5-min Rain = 0
KWE1 111630Z 34026G32KT 02/M04 A3001 RMK A01 T00161044  RH  064%=      5-min Rain = 0
KWE1 111631Z 35027KT 02/M05 A3001 RMK A01 T00161046  RH  063%=      5-min Rain = 0
KWE1 111632Z 35027G32KT 02/M05 A3001 RMK A01 T00161048  RH  063%=      5-min Rain = 0
KWE1 111633Z 35027KT 02/M05 A3001 RMK A01 T00151048  RH  063%=      5-min Rain = 0
KWE1 111634Z 35027KT 02/M05 A3001 RMK A01 T00151048  RH  063%=      5-min Rain = 0
KWE1 111635Z 35024KT 02/M05 A3002 RMK A01 T00151049  RH  063%=      5-min Rain = 0
KWE1 111636Z 34026KT 02/M05 A3002 RMK A01 T00151048  RH  063%=      5-min Rain = 0
KWE1 111637Z 34024G29KT 02/M05 A3002 RMK A01 T00151049  RH  063%=      5-min Rain = 0
KWE1 111638Z 34023G30KT 02/M05 A3002 RMK A01 T00151050  RH  062%=      5-min Rain = 0
KWE1 111639Z 34023KT 01/M05 A3002 RMK A01 T00141050  RH  062%=      5-min Rain = 0
KWE1 111640Z 34019G25KT 01/M05 A3002 RMK A01 T00141049  RH  063%=      5-min Rain = 0
KWE1 111641Z 35022G29KT 02/M05 A3003 RMK A01 T00151046  RH  064%=      5-min Rain = 0
KWE1 111642Z 34026G32KT 02/M05 A3002 RMK A01 T00161047  RH  063%=      5-min Rain = 0
KWE1 111643Z 35026G32KT 02/M05 A3003 RMK A01 T00161049  RH  062%=      5-min Rain = 0
KWE1 111644Z 35023KT 02/M05 A3002 RMK A01 T00161049  RH  062%=      5-min Rain = 0
KWE1 111645Z 35022G28KT 02/M05 A3003 RMK A01 T00151049  RH  062%=      5-min Rain = 0
KWE1 111646Z 35026KT 02/M05 A3003 RMK A01 T00161049  RH  062%=      5-min Rain = 0
KWE1 111647Z 35024KT 02/M05 A3003 RMK A01 T00161049  RH  062%=      5-min Rain = 0
KWE1 111648Z 34022G27KT 02/M05 A3003 RMK A01 T00161049  RH  062%=      5-min Rain = 0
KWE1 111649Z 34028KT 02/M05 A3003 RMK A01 T00171048  RH  062%=      5-min Rain = 0
KWE1 111650Z 34028KT 02/M05 A3003 RMK A01 T00161050  RH  061%=      5-min Rain = 0
KWE1 111651Z 35027KT 02/M05 A3003 RMK A01 T00171050  RH  061%=      5-min Rain = 0
KWE1 111652Z 35027G32KT 02/M05 A3003 RMK A01 T00171050  RH  061%=      5-min Rain = 0
KWE1 111653Z 35026G31KT 02/M05 A3003 RMK A01 T00171050  RH  061%=      5-min Rain = 0
KWE1 111654Z 34026KT 02/M05 A3003 RMK A01 T00161051  RH  061%=      5-min Rain = 0
KWE1 111655Z 34026KT 02/M05 A3003 RMK A01 T00171051  RH  061%=      5-min Rain = 0
KWE1 111656Z 35026G32KT 02/M05 A3003 RMK A01 T00161052  RH  061%=      5-min Rain = 0
KWE1 111657Z 34021KT 02/M05 A3003 RMK A01 T00171049  RH  061%=      5-min Rain = 0
KWE1 111658Z 35025G30KT 02/M05 A3003 RMK A01 T00181048  RH  062%=      5-min Rain = 0
KWE1 111659Z 34025KT 02/M05 A3004 RMK A01 T00191049  RH  061%=      5-min Rain = 0
KWE1 111700Z 35025KT 02/M05 A3004 RMK A01 T00191050  RH  060%=      5-min Rain = 0
KWE1 111701Z 35024KT 02/M05 A3004 RMK A01 T00191050  RH  060%=      5-min Rain = 0
KWE1 111702Z 36024KT 02/M05 A3004 RMK A01 T00191051  RH  060%=      5-min Rain = 0
KWE1 111703Z 34024G29KT 02/M05 A3004 RMK A01 T00201050  RH  060%=      5-min Rain = 0
KWE1 111704Z 34022KT 02/M05 A3004 RMK A01 T00211048  RH  060%=      5-min Rain = 0
KWE1 111705Z 34026KT 02/M05 A3004 RMK A01 T00211048  RH  060%=      5-min Rain = 0
KWE1 111706Z 34024KT 02/M05 A3004 RMK A01 T00211050  RH  059%=      5-min Rain = 0
KWE1 111707Z 34021KT 02/M05 A3004 RMK A01 T00211049  RH  060%=      5-min Rain = 0
KWE1 111708Z 34023G28KT 02/M05 A3004 RMK A01 T00211049  RH  060%=      5-min Rain = 0
KWE1 111709Z 34021G27KT 02/M05 A3004 RMK A01 T00211049  RH  060%=      5-min Rain = 0
KWE1 111710Z 34024KT 02/M05 A3004 RMK A01 T00221048  RH  060%=      5-min Rain = 0
KWE1 111711Z 34027G32KT 02/M05 A3004 RMK A01 T00221049  RH  059%=      5-min Rain = 0
KWE1 111712Z 35027G33KT 02/M05 A3005 RMK A01 T00221050  RH  059%=      5-min Rain = 0
KWE1 111713Z 34025KT 02/M05 A3005 RMK A01 T00211051  RH  059%=      5-min Rain = 0
KWE1 111714Z 34024KT 02/M05 A3005 RMK A01 T00211050  RH  059%=      5-min Rain = 0
KWE1 111715Z 34024G29KT 02/M05 A3004 RMK A01 T00221049  RH  059%=      5-min Rain = 0
KWE1 111716Z 34027KT 02/M05 A3005 RMK A01 T00221049  RH  059%=      5-min Rain = 0
KWE1 111717Z 34024G31KT 02/M05 A3005 RMK A01 T00211050  RH  059%=      5-min Rain = 0
KWE1 111718Z 35025G30KT 02/M05 A3005 RMK A01 T00221050  RH  059%=      5-min Rain = 0
KWE1 111719Z 35023KT 02/M05 A3005 RMK A01 T00221050  RH  059%=      5-min Rain = 0
KWE1 111720Z 35024G29KT 02/M05 A3005 RMK A01 T00221050  RH  059%=      5-min Rain = 0
KWE1 111721Z 35026KT 02/M05 A3005 RMK A01 T00221051  RH  059%=      5-min Rain = 0
KWE1 111722Z 35021G26KT 02/M05 A3005 RMK A01 T00231049  RH  059%=      5-min Rain = 0
KWE1 111723Z 36021G26KT 02/M05 A3005 RMK A01 T00241047  RH  059%=      5-min Rain = 0
KWE1 111724Z 35020KT 03/M05 A3005 RMK A01 T00261046  RH  059%=      5-min Rain = 0
KWE1 111725Z 34021KT 03/M05 A3005 RMK A01 T00261045  RH  059%=      5-min Rain = 0
KWE1 111726Z 34025KT 03/M05 A3005 RMK A01 T00271047  RH  058%=      5-min Rain = 0
KWE1 111727Z 35023G29KT 03/M05 A3005 RMK A01 T00261050  RH  057%=      5-min Rain = 0
KWE1 111728Z 35023KT 03/M05 A3005 RMK A01 T00261049  RH  058%=      5-min Rain = 0
KWE1 111729Z 35025KT 03/M05 A3005 RMK A01 T00261049  RH  058%=      5-min Rain = 0
KWE1 111730Z 35023G28KT 03/M05 A3005 RMK A01 T00261048  RH  058%=      5-min Rain = 0
KWE1 111731Z 35023KT 03/M05 A3005 RMK A01 T00271048  RH  058%=      5-min Rain = 0
KWE1 111732Z 36022G29KT 03/M05 A3005 RMK A01 T00281046  RH  058%=      5-min Rain = 0
KWE1 111733Z 35022KT 03/M05 A3005 RMK A01 T00281047  RH  058%=      5-min Rain = 0
KWE1 111734Z 35020G25KT 03/M05 A3005 RMK A01 T00291046  RH  058%=      5-min Rain = 0
KWE1 111735Z 34024KT 03/M05 A3005 RMK A01 T00301045  RH  058%=      5-min Rain = 0
KWE1 111736Z 34025KT 03/M05 A3005 RMK A01 T00321045  RH  057%=      5-min Rain = 0
KWE1 111737Z 34019KT 03/M05 A3006 RMK A01 T00331046  RH  056%=      5-min Rain = 0
KWE1 111738Z 33025G33KT 04/M04 A3005 RMK A01 T00361044  RH  056%=      5-min Rain = 0
KWE1 111739Z 34025KT 04/M05 A3005 RMK A01 T00371047  RH  055%=      5-min Rain = 0
KWE1 111740Z 33020G25KT 04/M05 A3006 RMK A01 T00361047  RH  055%=      5-min Rain = 0
KWE1 111741Z 34020G25KT 04/M05 A3006 RMK A01 T00371045  RH  055%=      5-min Rain = 0
KWE1 111742Z 33021G27KT 04/M04 A3006 RMK A01 T00391043  RH  055%=      5-min Rain = 0
KWE1 111743Z 33020G25KT 04/M04 A3006 RMK A01 T00401044  RH  054%=      5-min Rain = 0
KWE1 111744Z 34022KT 04/M05 A3006 RMK A01 T00411045  RH  054%=      5-min Rain = 0
KWE1 111745Z 33019G24KT 04/M05 A3006 RMK A01 T00391048  RH  053%=      5-min Rain = 0
KWE1 111746Z 33020KT 04/M05 A3006 RMK A01 T00401046  RH  054%=      5-min Rain = 0
KWE1 111747Z 34024G29KT 04/M05 A3006 RMK A01 T00401047  RH  053%=      5-min Rain = 0
KWE1 111748Z 33024G31KT 04/M05 A3006 RMK A01 T00381048  RH  053%=      5-min Rain = 0
KWE1 111749Z 34029KT 04/M05 A3006 RMK A01 T00381047  RH  054%=      5-min Rain = 0
KWE1 111750Z 33022G28KT 04/M05 A3006 RMK A01 T00381050  RH  053%=      5-min Rain = 0
KWE1 111751Z 34022G29KT 04/M05 A3006 RMK A01 T00401045  RH  054%=      5-min Rain = 0
KWE1 111752Z 34027G33KT 04/M04 A3006 RMK A01 T00431044  RH  053%=      5-min Rain = 0
KWE1 111753Z 34024KT 04/M05 A3006 RMK A01 T00431046  RH  053%=      5-min Rain = 0
KWE1 111754Z 34021G27KT 04/M05 A3006 RMK A01 T00421045  RH  053%=      5-min Rain = 0
KWE1 111755Z 35025KT 04/M04 A3006 RMK A01 T00431044  RH  053%=      5-min Rain = 0
KWE1 111756Z 34023KT 04/M04 A3006 RMK A01 T00431043  RH  053%=      5-min Rain = 0
KWE1 111757Z 35028KT 04/M04 A3006 RMK A01 T00431043  RH  054%=      5-min Rain = 0
KWE1 111758Z 35026G31KT 04/M05 A3006 RMK A01 T00391049  RH  053%=      5-min Rain = 0
KWE1 111759Z 36022G30KT 04/M05 A3006 RMK A01 T00371050  RH  053%=      5-min Rain = 0
KWE1 111800Z 36025KT 04/M05 A3006 RMK A01 T00371048  RH  054%=      5-min Rain = 0
KWE1 111801Z 34024G31KT 04/M05 A3007 RMK A01 T00381047  RH  054%=      5-min Rain = 0
KWE1 111802Z 34023G28KT 04/M05 A3007 RMK A01 T00381047  RH  054%=      5-min Rain = 0
KWE1 111803Z 34024G29KT 04/M05 A3007 RMK A01 T00371048  RH  054%=      5-min Rain = 0
KWE1 111804Z 34023G28KT 04/M05 A3007 RMK A01 T00371048  RH  054%=      5-min Rain = 0
KWE1 111805Z 34020KT 04/M05 A3007 RMK A01 T00361050  RH  053%=      5-min Rain = 0
KWE1 111806Z 34020G27KT 04/M05 A3006 RMK A01 T00371047  RH  054%=      5-min Rain = 0
KWE1 111807Z 35026KT 04/M05 A3006 RMK A01 T00401047  RH  053%=      5-min Rain = 0
KWE1 111808Z 33020G26KT 04/M05 A3006 RMK A01 T00421047  RH  052%=      5-min Rain = 0
KWE1 111809Z 34022G28KT 04/M05 A3006 RMK A01 T00431048  RH  052%=      5-min Rain = 0
KWE1 111810Z 34025KT 04/M05 A3006 RMK A01 T00431049  RH  051%=      5-min Rain = 0
KWE1 111811Z 34024KT 04/M05 A3007 RMK A01 T00441048  RH  051%=      5-min Rain = 0
KWE1 111812Z 35023KT 05/M05 A3007 RMK A01 T00451048  RH  051%=      5-min Rain = 0
KWE1 111813Z 34023KT 05/M05 A3007 RMK A01 T00451049  RH  050%=      5-min Rain = 0
KWE1 111814Z 33022KT 05/M05 A3007 RMK A01 T00461047  RH  051%=      5-min Rain = 0
KWE1 111815Z 34024KT 05/M05 A3007 RMK A01 T00461050  RH  050%=      5-min Rain = 0
KWE1 111816Z 34030KT 05/M05 A3007 RMK A01 T00461050  RH  050%=      5-min Rain = 0
KWE1 111817Z 33023G29KT 05/M05 A3007 RMK A01 T00461049  RH  050%=      5-min Rain = 0
KWE1 111818Z 33025G30KT 05/M05 A3007 RMK A01 T00471049  RH  050%=      5-min Rain = 0
KWE1 111819Z 35028KT 05/M05 A3007 RMK A01 T00461050  RH  050%=      5-min Rain = 0
KWE1 111820Z 35028KT 05/M05 A3007 RMK A01 T00471050  RH  050%=      5-min Rain = 0
KWE1 111821Z 34026KT 05/M05 A3007 RMK A01 T00471051  RH  049%=      5-min Rain = 0
KWE1 111822Z 34026G31KT 05/M05 A3007 RMK A01 T00471050  RH  049%=      5-min Rain = 0
KWE1 111823Z 35029G34KT 05/M05 A3007 RMK A01 T00481049  RH  049%=      5-min Rain = 0
KWE1 111824Z 34022G27KT 05/M05 A3007 RMK A01 T00481048  RH  049%=      5-min Rain = 0
KWE1 111825Z 35025G30KT 05/M05 A3007 RMK A01 T00511045  RH  050%=      5-min Rain = 0
KWE1 111826Z 35027KT 05/M05 A3007 RMK A01 T00511049  RH  048%=      5-min Rain = 0
KWE1 111827Z 34027KT 05/M05 A3007 RMK A01 T00491051  RH  048%=      5-min Rain = 0
KWE1 111828Z 34027KT 05/M05 A3007 RMK A01 T00481053  RH  048%=      5-min Rain = 0
KWE1 111829Z 33024G29KT 05/M05 A3007 RMK A01 T00471053  RH  048%=      5-min Rain = 0
KWE1 111830Z 34027KT 05/M05 A3007 RMK A01 T00491050  RH  049%=      5-min Rain = 0
KWE1 111831Z 34026G34KT 05/M05 A3007 RMK A01 T00501050  RH  048%=      5-min Rain = 0
KWE1 111832Z 34025G32KT 05/M05 A3007 RMK A01 T00511050  RH  048%=      5-min Rain = 0
KWE1 111833Z 34025KT 05/M05 A3007 RMK A01 T00511051  RH  048%=      5-min Rain = 0
KWE1 111834Z 35027KT 05/M05 A3007 RMK A01 T00521049  RH  048%=      5-min Rain = 0
KWE1 111835Z 35026G32KT 05/M05 A3008 RMK A01 T00531050  RH  047%=      5-min Rain = 0
KWE1 111836Z 34028G33KT 05/M05 A3008 RMK A01 T00531051  RH  047%=      5-min Rain = 0
KWE1 111837Z 34028G33KT 05/M05 A3008 RMK A01 T00521052  RH  047%=      5-min Rain = 0
KWE1 111838Z 34027KT 05/M05 A3008 RMK A01 T00511052  RH  047%=      5-min Rain = 0
KWE1 111839Z 34024G30KT 05/M05 A3008 RMK A01 T00511052  RH  047%=      5-min Rain = 0
KWE1 111840Z 34025KT 05/M05 A3007 RMK A01 T00521052  RH  047%=      5-min Rain = 0
KWE1 111841Z 34021G26KT 05/M05 A3008 RMK A01 T00521052  RH  047%=      5-min Rain = 0
KWE1 111842Z 34022G29KT 06/M05 A3008 RMK A01 T00551048  RH  047%=      5-min Rain = 0
KWE1 111843Z 34022KT 06/M05 A3008 RMK A01 T00561049  RH  047%=      5-min Rain = 0
KWE1 111844Z 34022KT 06/M05 A3008 RMK A01 T00581049  RH  046%=      5-min Rain = 0
KWE1 111845Z 33021KT 06/M05 A3008 RMK A01 T00591051  RH  045%=      5-min Rain = 0
KWE1 111846Z 33021G27KT 06/M05 A3008 RMK A01 T00581051  RH  045%=      5-min Rain = 0
KWE1 111847Z 34021G27KT 06/M05 A3008 RMK A01 T00571053  RH  045%=      5-min Rain = 0
KWE1 111848Z 33022G27KT 06/M05 A3008 RMK A01 T00561054  RH  045%=      5-min Rain = 0
KWE1 111849Z 34022G27KT 06/M06 A3008 RMK A01 T00551057  RH  044%=      5-min Rain = 0
KWE1 111850Z 33019G27KT 05/M06 A3008 RMK A01 T00531059  RH  044%=      5-min Rain = 0
KWE1 111851Z 34022G29KT 05/M06 A3008 RMK A01 T00531058  RH  045%=      5-min Rain = 0
KWE1 111852Z 34027KT 05/M06 A3008 RMK A01 T00541058  RH  045%=      5-min Rain = 0
KWE1 111853Z 33022G29KT 05/M06 A3008 RMK A01 T00521060  RH  044%=      5-min Rain = 0
KWE1 111854Z 34019G24KT 05/M06 A3008 RMK A01 T00521059  RH  044%=      5-min Rain = 0
KWE1 111855Z 34025G30KT 06/M05 A3008 RMK A01 T00561053  RH  046%=      5-min Rain = 0
KWE1 111856Z 34023G30KT 06/M06 A3008 RMK A01 T00561057  RH  044%=      5-min Rain = 0
KWE1 111857Z 34023G28KT 05/M06 A3008 RMK A01 T00541059  RH  044%=      5-min Rain = 0
KWE1 111858Z 35025G31KT 05/M06 A3008 RMK A01 T00531060  RH  044%=      5-min Rain = 0
KWE1 111859Z 35025KT 06/M06 A3008 RMK A01 T00551056  RH  045%=      5-min Rain = 0
KWE1 111900Z 35023G30KT 06/M06 A3008 RMK A01 T00571057  RH  044%=      5-min Rain = 0
KWE1 111901Z 35020G25KT 06/M06 A3008 RMK A01 T00571057  RH  044%=      5-min Rain = 0
KWE1 111902Z 35023KT 06/M06 A3008 RMK A01 T00601056  RH  043%=      5-min Rain = 0
KWE1 111903Z 34024G31KT 06/M06 A3008 RMK A01 T00591058  RH  043%=      5-min Rain = 0
KWE1 111904Z 35023G29KT 06/M06 A3008 RMK A01 T00591059  RH  042%=      5-min Rain = 0
KWE1 111905Z 35024KT 06/M06 A3008 RMK A01 T00581060  RH  042%=      5-min Rain = 0
KWE1 111906Z 34023G29KT 06/M06 A3008 RMK A01 T00581060  RH  043%=      5-min Rain = 0
KWE1 111907Z 35028KT 06/M06 A3008 RMK A01 T00581059  RH  043%=      5-min Rain = 0
KWE1 111908Z 35025KT 06/M06 A3008 RMK A01 T00581061  RH  042%=      5-min Rain = 0
KWE1 111909Z 34025KT 06/M06 A3008 RMK A01 T00591059  RH  042%=      5-min Rain = 0
KWE1 111910Z 35026G32KT 06/M06 A3008 RMK A01 T00611057  RH  042%=      5-min Rain = 0
KWE1 111911Z 34029KT 06/M06 A3008 RMK A01 T00631059  RH  041%=      5-min Rain = 0
KWE1 111912Z 34025G30KT 06/M07 A3008 RMK A01 T00591065  RH  040%=      5-min Rain = 0
KWE1 111913Z 35020G26KT 06/M06 A3008 RMK A01 T00571063  RH  042%=      5-min Rain = 0
KWE1 111914Z 36022G29KT 06/M06 A3008 RMK A01 T00571063  RH  042%=      5-min Rain = 0
KWE1 111915Z 36022G27KT 06/M07 A3008 RMK A01 T00551066  RH  041%=      5-min Rain = 0
KWE1 111916Z 36023G28KT 05/M07 A3008 RMK A01 T00531068  RH  041%=      5-min Rain = 0
KWE1 111917Z 35022KT 05/M07 A3008 RMK A01 T00531067  RH  042%=      5-min Rain = 0
KWE1 111918Z 35021KT 06/M06 A3008 RMK A01 T00561062  RH  042%=      5-min Rain = 0
KWE1 111919Z 36018G24KT 06/M06 A3008 RMK A01 T00581061  RH  042%=      5-min Rain = 0
KWE1 111920Z 35025KT 06/M06 A3008 RMK A01 T00621058  RH  042%=      5-min Rain = 0
KWE1 111921Z 35024KT 06/M06 A3008 RMK A01 T00631062  RH  040%=      5-min Rain = 0
KWE1 111922Z 34024KT 06/M06 A3008 RMK A01 T00621064  RH  040%=      5-min Rain = 0
KWE1 111923Z 35026G32KT 06/M06 A3008 RMK A01 T00631063  RH  040%=      5-min Rain = 0
KWE1 111924Z 34027G32KT 07/M06 A3008 RMK A01 T00651061  RH  040%=      5-min Rain = 0
KWE1 111925Z 35026KT 07/M06 A3008 RMK A01 T00651063  RH  039%=      5-min Rain = 0
KWE1 111926Z 34025KT 06/M07 A3008 RMK A01 T00641065  RH  039%=      5-min Rain = 0
KWE1 111927Z 34024KT 06/M07 A3007 RMK A01 T00601068  RH  039%=      5-min Rain = 0
KWE1 111928Z 34022G29KT 06/M07 A3007 RMK A01 T00581068  RH  040%=      5-min Rain = 0
KWE1 111929Z 35023KT 06/M06 A3008 RMK A01 T00591064  RH  041%=      5-min Rain = 0
KWE1 111930Z 35021KT 06/M06 A3008 RMK A01 T00631060  RH  041%=      5-min Rain = 0
KWE1 111931Z 35019G26KT 07/M06 A3008 RMK A01 T00651060  RH  040%=      5-min Rain = 0
KWE1 111932Z 34026G31KT 07/M06 A3008 RMK A01 T00651063  RH  040%=      5-min Rain = 0
KWE1 111933Z 35025KT 06/M07 A3008 RMK A01 T00601070  RH  039%=      5-min Rain = 0
KWE1 111934Z 34022KT 06/M07 A3007 RMK A01 T00571070  RH  039%=      5-min Rain = 0
KWE1 111935Z 34025KT 06/M07 A3007 RMK A01 T00571069  RH  040%=      5-min Rain = 0
KWE1 111936Z 34024KT 06/M07 A3007 RMK A01 T00571070  RH  040%=      5-min Rain = 0
KWE1 111937Z 34025G30KT 06/M07 A3008 RMK A01 T00571069  RH  040%=      5-min Rain = 0
KWE1 111938Z 35025KT 06/M07 A3008 RMK A01 T00581069  RH  040%=      5-min Rain = 0
KWE1 111939Z 35022KT 06/M07 A3008 RMK A01 T00591069  RH  039%=      5-min Rain = 0
KWE1 111940Z 35023KT 06/M07 A3008 RMK A01 T00591069  RH  039%=      5-min Rain = 0
KWE1 111941Z 35023KT 06/M07 A3008 RMK A01 T00591070  RH  039%=      5-min Rain = 0
KWE1 111942Z 35024KT 06/M07 A3007 RMK A01 T00601070  RH  039%=      5-min Rain = 0
KWE1 111943Z 35025KT 06/M07 A3008 RMK A01 T00621070  RH  038%=      5-min Rain = 0
KWE1 111944Z 34024KT 06/M07 A3008 RMK A01 T00641069  RH  038%=      5-min Rain = 0
KWE1 111945Z 35023KT 07/M07 A3008 RMK A01 T00661069  RH  037%=      5-min Rain = 0
KWE1 111946Z 34022G30KT 07/M07 A3008 RMK A01 T00681068  RH  037%=      5-min Rain = 0
KWE1 111947Z 34029G34KT 07/M07 A3008 RMK A01 T00721068  RH  036%=      5-min Rain = 0
KWE1 111948Z 34027KT 07/M07 A3008 RMK A01 T00711073  RH  035%=      5-min Rain = 0
KWE1 111949Z 34027G32KT 07/M07 A3007 RMK A01 T00701074  RH  035%=      5-min Rain = 0
KWE1 111950Z 35028KT 07/M07 A3008 RMK A01 T00701073  RH  035%=      5-min Rain = 0
KWE1 111951Z 35025KT 07/M08 A3008 RMK A01 T00711075  RH  035%=      5-min Rain = 0
KWE1 111952Z 35022G27KT 07/M08 A3008 RMK A01 T00711075  RH  035%=      5-min Rain = 0
KWE1 111953Z 35022KT 07/M07 A3008 RMK A01 T00741069  RH  035%=      5-min Rain = 0
KWE1 111954Z 36025G30KT 08/M07 A3008 RMK A01 T00751071  RH  035%=      5-min Rain = 0
KWE1 111955Z 00024G32KT 07/M08 A3008 RMK A01 T00711077  RH  034%=      5-min Rain = 0
KWE1 111956Z 36027KT 07/M08 A3008 RMK A01 T00701078  RH  034%=      5-min Rain = 0
KWE1 111957Z 36029KT 07/M08 A3008 RMK A01 T00691080  RH  034%=      5-min Rain = 0
KWE1 111958Z 36024KT 07/M08 A3008 RMK A01 T00671082  RH  034%=      5-min Rain = 0
KWE1 111959Z 35027KT 07/M08 A3008 RMK A01 T00671081  RH  034%=      5-min Rain = 0
KWE1 112000Z 35023KT 07/M08 A3008 RMK A01 T00671080  RH  034%=      5-min Rain = 0
KWE1 112001Z 00022KT 07/M08 A3008 RMK A01 T00681079  RH  034%=      5-min Rain = 0
KWE1 112002Z 36024KT 07/M08 A3008 RMK A01 T00701079  RH  034%=      5-min Rain = 0
KWE1 112003Z 35024G29KT 07/M08 A3008 RMK A01 T00711079  RH  034%=      5-min Rain = 0
KWE1 112004Z 34027G33KT 07/M08 A3008 RMK A01 T00721079  RH  033%=      5-min Rain = 0
KWE1 112005Z 34024G29KT 07/M08 A3008 RMK A01 T00741079  RH  033%=      5-min Rain = 0
KWE1 112006Z 34026G31KT 07/M08 A3008 RMK A01 T00741080  RH  033%=      5-min Rain = 0
KWE1 112007Z 34026G33KT 07/M08 A3008 RMK A01 T00741081  RH  033%=      5-min Rain = 0
KWE1 112008Z 34027G32KT 08/M08 A3008 RMK A01 T00751079  RH  033%=      5-min Rain = 0
KWE1 112009Z 35027G33KT 08/M08 A3008 RMK A01 T00761081  RH  032%=      5-min Rain = 0
KWE1 112010Z 34025G30KT 08/M08 A3008 RMK A01 T00761080  RH  032%=      5-min Rain = 0
KWE1 112011Z 35027KT 08/M08 A3009 RMK A01 T00761080  RH  032%=      5-min Rain = 0
KWE1 112012Z 35025G32KT 08/M08 A3009 RMK A01 T00771081  RH  032%=      5-min Rain = 0
KWE1 112013Z 34027G32KT 08/M08 A3009 RMK A01 T00761082  RH  032%=      5-min Rain = 0
KWE1 112014Z 35027KT 08/M08 A3009 RMK A01 T00751084  RH  031%=      5-min Rain = 0
KWE1 112015Z 35024KT 08/M08 A3009 RMK A01 T00751083  RH  032%=      5-min Rain = 0
KWE1 112016Z 35027KT 08/M08 A3009 RMK A01 T00751083  RH  032%=      5-min Rain = 0
KWE1 112017Z 35028G33KT 08/M09 A3009 RMK A01 T00751085  RH  031%=      5-min Rain = 0
KWE1 112018Z 35024G29KT 07/M09 A3009 RMK A01 T00721088  RH  031%=      5-min Rain = 0
KWE1 112019Z 36029KT 07/M09 A3009 RMK A01 T00731086  RH  031%=      5-min Rain = 0
KWE1 112020Z 35026G32KT 07/M09 A3009 RMK A01 T00741086  RH  031%=      5-min Rain = 0
KWE1 112021Z 35025G31KT 08/M08 A3009 RMK A01 T00761083  RH  031%=      5-min Rain = 0
KWE1 112022Z 36027KT 08/M08 A3009 RMK A01 T00781083  RH  031%=      5-min Rain = 0
KWE1 112023Z 36026KT 08/M09 A3009 RMK A01 T00771086  RH  031%=      5-min Rain = 0
KWE1 112024Z 35027G33KT 08/M09 A3009 RMK A01 T00761087  RH  030%=      5-min Rain = 0
KWE1 112025Z 35026KT 08/M09 A3009 RMK A01 T00751087  RH  031%=      5-min Rain = 0
KWE1 112026Z 35024G31KT 08/M09 A3009 RMK A01 T00761086  RH  031%=      5-min Rain = 0
KWE1 112027Z 00026KT 08/M09 A3009 RMK A01 T00761085  RH  031%=      5-min Rain = 0
KWE1 112028Z 00023G28KT 08/M09 A3009 RMK A01 T00771086  RH  030%=      5-min Rain = 0
KWE1 112029Z 01026KT 08/M09 A3009 RMK A01 T00781087  RH  030%=      5-min Rain = 0
KWE1 112030Z 36026KT 08/M09 A3009 RMK A01 T00781087  RH  030%=      5-min Rain = 0
KWE1 112031Z 35024KT 08/M09 A3009 RMK A01 T00781087  RH  030%=      5-min Rain = 0
KWE1 112032Z 34025G30KT 08/M09 A3009 RMK A01 T00791085  RH  030%=      5-min Rain = 0
KWE1 112033Z 34023KT 08/M09 A3009 RMK A01 T00801085  RH  030%=      5-min Rain = 0
KWE1 112034Z 34023KT 08/M08 A3009 RMK A01 T00801084  RH  030%=      5-min Rain = 0
KWE1 112035Z 35025KT 08/M08 A3009 RMK A01 T00821083  RH  030%=      5-min Rain = 0
KWE1 112036Z 34027KT 08/M09 A3009 RMK A01 T00821087  RH  029%=      5-min Rain = 0
KWE1 112037Z 35028KT 08/M09 A301 RMK A01 T00801089  RH  029%=      5-min Rain = 0
KWE1 112038Z 34027G34KT 08/M09 A3009 RMK A01 T00801088  RH  029%=      5-min Rain = 0
KWE1 112039Z 34023KT 08/M09 A3009 RMK A01 T00801089  RH  029%=      5-min Rain = 0
KWE1 112040Z 34023KT 08/M09 A301 RMK A01 T00811087  RH  030%=      5-min Rain = 0
KWE1 112041Z 34020G25KT 08/M09 A301 RMK A01 T00821085  RH  030%=      5-min Rain = 0
KWE1 112042Z 34023KT 08/M09 A301 RMK A01 T00821085  RH  030%=      5-min Rain = 0
KWE1 112043Z 33021G26KT 08/M09 A301 RMK A01 T00821085  RH  030%=      5-min Rain = 0
KWE1 112044Z 34023G28KT 08/M09 A301 RMK A01 T00821087  RH  029%=      5-min Rain = 0
KWE1 112045Z 33025G30KT 08/M09 A3009 RMK A01 T00821087  RH  029%=      5-min Rain = 0
KWE1 112046Z 34024G29KT 08/M09 A3009 RMK A01 T00821087  RH  029%=      5-min Rain = 0
KWE1 112047Z 34024KT 08/M09 A301 RMK A01 T00821087  RH  029%=      5-min Rain = 0
KWE1 112048Z 34022KT 08/M09 A301 RMK A01 T00821088  RH  029%=      5-min Rain = 0
KWE1 112049Z 34026KT 08/M09 A301 RMK A01 T00821088  RH  029%=      5-min Rain = 0
KWE1 112050Z 34024KT 08/M09 A3009 RMK A01 T00821091  RH  028%=      5-min Rain = 0
KWE1 112051Z 34023G28KT 08/M09 A301 RMK A01 T00821089  RH  029%=      5-min Rain = 0
KWE1 112052Z 34024KT 08/M09 A301 RMK A01 T00831088  RH  029%=      5-min Rain = 0
KWE1 112053Z 35026G31KT 08/M09 A301 RMK A01 T00831090  RH  028%=      5-min Rain = 0
KWE1 112054Z 35024G29KT 08/M09 A301 RMK A01 T00831090  RH  028%=      5-min Rain = 0
KWE1 112055Z 35023KT 08/M09 A301 RMK A01 T00821089  RH  029%=      5-min Rain = 0
KWE1 112056Z 35024KT 08/M09 A301 RMK A01 T00831089  RH  029%=      5-min Rain = 0
KWE1 112057Z 35024KT 08/M09 A301 RMK A01 T00831090  RH  028%=      5-min Rain = 0
KWE1 112058Z 35026KT 08/M09 A301 RMK A01 T00831090  RH  028%=      5-min Rain = 0
KWE1 112059Z 34025G30KT 08/M09 A301 RMK A01 T00831092  RH  028%=      5-min Rain = 0
KWE1 112100Z 34029KT 08/M09 A301 RMK A01 T00831093  RH  028%=      5-min Rain = 0
KWE1 112101Z 35026G32KT 08/M09 A301 RMK A01 T00831092  RH  028%=      5-min Rain = 0
KWE1 112102Z 35027KT 09/M09 A301 RMK A01 T00851092  RH  028%=      5-min Rain = 0
KWE1 112103Z 35023G30KT 09/M09 A301 RMK A01 T00861093  RH  027%=      5-min Rain = 0
KWE1 112104Z 01025G32KT 09/M09 A301 RMK A01 T00871092  RH  027%=      5-min Rain = 0
KWE1 112105Z 00025G30KT 09/M10 A301 RMK A01 T00861095  RH  027%=      5-min Rain = 0
KWE1 112106Z 36024G29KT 08/M10 A301 RMK A01 T00841096  RH  027%=      5-min Rain = 0
KWE1 112107Z 35020G29KT 08/M09 A301 RMK A01 T00841093  RH  028%=      5-min Rain = 0
KWE1 112108Z 34022G29KT 09/M09 A301 RMK A01 T00851092  RH  028%=      5-min Rain = 0
KWE1 112109Z 34029G34KT 09/M09 A301 RMK A01 T00861093  RH  027%=      5-min Rain = 0
KWE1 112110Z 34027G32KT 09/M09 A301 RMK A01 T00851094  RH  027%=      5-min Rain = 0
KWE1 112111Z 34026G33KT 08/M10 A301 RMK A01 T00841095  RH  027%=      5-min Rain = 0
KWE1 112112Z 34026G31KT 08/M09 A301 RMK A01 T00841094  RH  027%=      5-min Rain = 0
KWE1 112113Z 34027G32KT 08/M09 A301 RMK A01 T00841094  RH  027%=      5-min Rain = 0
KWE1 112114Z 35027G32KT 08/M10 A301 RMK A01 T00841095  RH  027%=      5-min Rain = 0
KWE1 112115Z 35028G33KT 08/M10 A3011 RMK A01 T00841095  RH  027%=      5-min Rain = 0
KWE1 112116Z 35024G29KT 08/M10 A3011 RMK A01 T00841095  RH  027%=      5-min Rain = 0
KWE1 112117Z 35025KT 09/M09 A3011 RMK A01 T00851093  RH  027%=      5-min Rain = 0
KWE1 112118Z 34025KT 09/M09 A3011 RMK A01 T00861094  RH  027%=      5-min Rain = 0
KWE1 112119Z 34025KT 09/M10 A3011 RMK A01 T00861095  RH  027%=      5-min Rain = 0
KWE1 112120Z 34024G30KT 09/M10 A3011 RMK A01 T00851095  RH  027%=      5-min Rain = 0
KWE1 112121Z 34026KT 09/M10 A3011 RMK A01 T00851096  RH  027%=      5-min Rain = 0
KWE1 112122Z 35022G27KT 08/M10 A3011 RMK A01 T00841097  RH  027%=      5-min Rain = 0
KWE1 112123Z 35023KT 09/M10 A3011 RMK A01 T00851095  RH  027%=      5-min Rain = 0
KWE1 112124Z 34021G28KT 09/M09 A3011 RMK A01 T00861093  RH  027%=      5-min Rain = 0
KWE1 112125Z 34028G33KT 09/M09 A3011 RMK A01 T00881094  RH  027%=      5-min Rain = 0
KWE1 112126Z 34025G33KT 09/M10 A3011 RMK A01 T00871095  RH  027%=      5-min Rain = 0
KWE1 112127Z 36022G27KT 09/M09 A3011 RMK A01 T00881092  RH  027%=      5-min Rain = 0
KWE1 112128Z 36021KT 09/M09 A3011 RMK A01 T00891092  RH  027%=      5-min Rain = 0
KWE1 112129Z 35025G32KT 09/M09 A3012 RMK A01 T00891092  RH  027%=      5-min Rain = 0
KWE1 112130Z 35024G29KT 09/M09 A3011 RMK A01 T00901092  RH  027%=      5-min Rain = 0
KWE1 112131Z 36021G26KT 09/M09 A3012 RMK A01 T00901092  RH  027%=      5-min Rain = 0
KWE1 112132Z 01026G33KT 09/M09 A3012 RMK A01 T00901093  RH  026%=      5-min Rain = 0
KWE1 112133Z 00027G32KT 09/M10 A3012 RMK A01 T00891099  RH  025%=      5-min Rain = 0
KWE1 112134Z 35027KT 09/M10 A3012 RMK A01 T00871100  RH  026%=      5-min Rain = 0
KWE1 112135Z 36026KT 09/M10 A3012 RMK A01 T00861099  RH  026%=      5-min Rain = 0
KWE1 112136Z 00028KT 09/M10 A3012 RMK A01 T00871099  RH  026%=      5-min Rain = 0
KWE1 112137Z 35027KT 09/M10 A3012 RMK A01 T00861100  RH  026%=      5-min Rain = 0
KWE1 112138Z 36026G31KT 09/M10 A3012 RMK A01 T00861099  RH  026%=      5-min Rain = 0
KWE1 112139Z 36025G30KT 09/M10 A3012 RMK A01 T00871098  RH  026%=      5-min Rain = 0
KWE1 112140Z 36021G27KT 09/M10 A3012 RMK A01 T00871097  RH  026%=      5-min Rain = 0
KWE1 112141Z 00024KT 09/M10 A3012 RMK A01 T00881095  RH  026%=      5-min Rain = 0
KWE1 112142Z 00023G30KT 09/M10 A3012 RMK A01 T00891097  RH  026%=      5-min Rain = 0
KWE1 112143Z 36020G25KT 09/M10 A3012 RMK A01 T00881096  RH  026%=      5-min Rain = 0
KWE1 112144Z 36018G26KT 09/M09 A3012 RMK A01 T00901094  RH  026%=      5-min Rain = 0
KWE1 112145Z 35019G26KT 09/M09 A3012 RMK A01 T00911093  RH  026%=      5-min Rain = 0
KWE1 112146Z 36021KT 09/M09 A3012 RMK A01 T00911093  RH  026%=      5-min Rain = 0
KWE1 112147Z 34021G27KT 09/M09 A3012 RMK A01 T00911092  RH  027%=      5-min Rain = 0
KWE1 112148Z 35021KT 09/M09 A3012 RMK A01 T00911093  RH  026%=      5-min Rain = 0
KWE1 112149Z 00022G29KT 09/M09 A3012 RMK A01 T00901093  RH  026%=      5-min Rain = 0
KWE1 112150Z 35022KT 09/M09 A3013 RMK A01 T00901094  RH  026%=      5-min Rain = 0
KWE1 112151Z 35022KT 09/M10 A3012 RMK A01 T00891096  RH  026%=      5-min Rain = 0
KWE1 112152Z 35020KT 09/M09 A3013 RMK A01 T00881094  RH  026%=      5-min Rain = 0
KWE1 112153Z 36023G28KT 09/M09 A3013 RMK A01 T00891093  RH  026%=      5-min Rain = 0
KWE1 112154Z 36021KT 09/M10 A3013 RMK A01 T00891096  RH  026%=      5-min Rain = 0
KWE1 112155Z 35021G27KT 09/M09 A3013 RMK A01 T00901093  RH  026%=      5-min Rain = 0
KWE1 112156Z 34028KT 09/M09 A3012 RMK A01 T00901094  RH  026%=      5-min Rain = 0
KWE1 112157Z 34025KT 09/M10 A3013 RMK A01 T00891097  RH  026%=      5-min Rain = 0
KWE1 112158Z 35025KT 09/M10 A3013 RMK A01 T00891096  RH  026%=      5-min Rain = 0
KWE1 112159Z 35024KT 09/M10 A3013 RMK A01 T00891097  RH  026%=      5-min Rain = 0
KWE1 112200Z 34021G27KT 09/M10 A3013 RMK A01 T00891095  RH  026%=      5-min Rain = 0
KWE1 112201Z 35021KT 09/M10 A3013 RMK A01 T00901095  RH  026%=      5-min Rain = 0
KWE1 112202Z 35021G28KT 09/M09 A3013 RMK A01 T00901093  RH  026%=      5-min Rain = 0
KWE1 112203Z 35027KT 09/M09 A3013 RMK A01 T00921093  RH  026%=      5-min Rain = 0
KWE1 112204Z 35025KT 09/M10 A3013 RMK A01 T00891099  RH  025%=      5-min Rain = 0
KWE1 112205Z 34023KT 09/M10 A3013 RMK A01 T00881099  RH  026%=      5-min Rain = 0
KWE1 112206Z 34022G31KT 09/M10 A3013 RMK A01 T00881098  RH  026%=      5-min Rain = 0
KWE1 112207Z 34027G32KT 09/M10 A3013 RMK A01 T00881097  RH  026%=      5-min Rain = 0
KWE1 112208Z 35028G34KT 09/M10 A3013 RMK A01 T00871099  RH  026%=      5-min Rain = 0
KWE1 112209Z 36030KT 09/M10 A3013 RMK A01 T00861100  RH  026%=      5-min Rain = 0
KWE1 112210Z 35027KT 09/M10 A3014 RMK A01 T00851101  RH  026%=      5-min Rain = 0
KWE1 112211Z 35026G31KT 08/M10 A3013 RMK A01 T00841101  RH  026%=      5-min Rain = 0
KWE1 112212Z 35024KT 08/M10 A3014 RMK A01 T00841100  RH  026%=      5-min Rain = 0
KWE1 112213Z 00025G32KT 09/M10 A3014 RMK A01 T00851100  RH  026%=      5-min Rain = 0
KWE1 112214Z 00025G31KT 09/M10 A3014 RMK A01 T00851101  RH  026%=      5-min Rain = 0
KWE1 112215Z 00024KT 09/M10 A3014 RMK A01 T00851101  RH  026%=      5-min Rain = 0
KWE1 112216Z 35023KT 09/M10 A3014 RMK A01 T00851101  RH  026%=      5-min Rain = 0
KWE1 112217Z 00024G30KT 09/M10 A3014 RMK A01 T00851101  RH  026%=      5-min Rain = 0
KWE1 112218Z 36021KT 08/M10 A3014 RMK A01 T00841102  RH  026%=      5-min Rain = 0
KWE1 112219Z 35022G27KT 08/M10 A3014 RMK A01 T00841100  RH  026%=      5-min Rain = 0
KWE1 112220Z 35020G26KT 08/M10 A3014 RMK A01 T00841101  RH  026%=      5-min Rain = 0
KWE1 112221Z 36021G27KT 09/M10 A3014 RMK A01 T00851098  RH  026%=      5-min Rain = 0
KWE1 112222Z 36024G30KT 09/M10 A3014 RMK A01 T00851100  RH  026%=      5-min Rain = 0
KWE1 112223Z 34026G31KT 08/M10 A3014 RMK A01 T00841102  RH  026%=      5-min Rain = 0
KWE1 112224Z 35025KT 08/M10 A3014 RMK A01 T00841102  RH  026%=      5-min Rain = 0
KWE1 112225Z 36025KT 08/M10 A3015 RMK A01 T00841101  RH  026%=      5-min Rain = 0
KWE1 112226Z 36023G29KT 08/M10 A3015 RMK A01 T00831101  RH  026%=      5-min Rain = 0
KWE1 112227Z 35024KT 08/M10 A3015 RMK A01 T00831101  RH  026%=      5-min Rain = 0
KWE1 112228Z 35023KT 08/M10 A3015 RMK A01 T00831103  RH  026%=      5-min Rain = 0
KWE1 112229Z 00025G31KT 08/M10 A3015 RMK A01 T00831103  RH  026%=      5-min Rain = 0
KWE1 112230Z 00026KT 08/M10 A3015 RMK A01 T00831103  RH  026%=      5-min Rain = 0
KWE1 112231Z 00023KT 08/M10 A3015 RMK A01 T00821103  RH  026%=      5-min Rain = 0
KWE1 112232Z 36025G30KT 08/M10 A3015 RMK A01 T00821103  RH  026%=      5-min Rain = 0
KWE1 112233Z 00023KT 08/M10 A3015 RMK A01 T00821103  RH  026%=      5-min Rain = 0
KWE1 112234Z 36021G26KT 08/M10 A3015 RMK A01 T00821103  RH  026%=      5-min Rain = 0
KWE1 112235Z 00021KT 08/M10 A3015 RMK A01 T00811104  RH  026%=      5-min Rain = 0
KWE1 112236Z 35019G25KT 08/M10 A3015 RMK A01 T00811104  RH  026%=      5-min Rain = 0
KWE1 112237Z 36021KT 08/M10 A3015 RMK A01 T00821101  RH  026%=      5-min Rain = 0
KWE1 112238Z 35020KT 08/M10 A3015 RMK A01 T00821102  RH  026%=      5-min Rain = 0
KWE1 112239Z 35022KT 08/M10 A3015 RMK A01 T00821102  RH  026%=      5-min Rain = 0
KWE1 112240Z 36020KT 08/M10 A3015 RMK A01 T00821103  RH  026%=      5-min Rain = 0
KWE1 112241Z 36018KT 08/M10 A3015 RMK A01 T00821101  RH  026%=      5-min Rain = 0
KWE1 112242Z 36018G25KT 08/M10 A3015 RMK A01 T00821101  RH  026%=      5-min Rain = 0
KWE1 112243Z 36019KT 08/M10 A3015 RMK A01 T00821101  RH  026%=      5-min Rain = 0
KWE1 112244Z 35020KT 08/M10 A3015 RMK A01 T00821100  RH  026%=      5-min Rain = 0
KWE1 112245Z 35018G24KT 08/M10 A3015 RMK A01 T00821101  RH  026%=      5-min Rain = 0
KWE1 112246Z 35020KT 08/M10 A3015 RMK A01 T00821099  RH  026%=      5-min Rain = 0
KWE1 112247Z 35019KT 08/M10 A3015 RMK A01 T00821100  RH  026%=      5-min Rain = 0
KWE1 112248Z 35018KT 08/M10 A3015 RMK A01 T00821101  RH  026%=      5-min Rain = 0
KWE1 112249Z 34019G25KT 08/M10 A3015 RMK A01 T00821100  RH  026%=      5-min Rain = 0
KWE1 112250Z 34024G30KT 08/M10 A3015 RMK A01 T00821100  RH  026%=      5-min Rain = 0
KWE1 112251Z 35021G29KT 08/M10 A3015 RMK A01 T00821100  RH  026%=      5-min Rain = 0
KWE1 112252Z 35025G30KT 08/M10 A3015 RMK A01 T00821100  RH  026%=      5-min Rain = 0
KWE1 112253Z 34024G30KT 08/M10 A3015 RMK A01 T00821103  RH  026%=      5-min Rain = 0
KWE1 112254Z 34029G34KT 08/M10 A3015 RMK A01 T00811104  RH  026%=      5-min Rain = 0
KWE1 112255Z 35022G29KT 08/M11 A3015 RMK A01 T00811105  RH  026%=      5-min Rain = 0
KWE1 112256Z 35025KT 08/M10 A3015 RMK A01 T00801103  RH  026%=      5-min Rain = 0
KWE1 112257Z 36024KT 08/M10 A3015 RMK A01 T00801104  RH  026%=      5-min Rain = 0
KWE1 112258Z 35025KT 08/M11 A3015 RMK A01 T00801105  RH  026%=      5-min Rain = 0
KWE1 112259Z 35023KT 08/M11 A3015 RMK A01 T00801106  RH  026%=      5-min Rain = 0
KWE1 112300Z 36020G25KT 08/M11 A3016 RMK A01 T00791106  RH  026%=      5-min Rain = 0
KWE1 112301Z 00019KT 08/M10 A3016 RMK A01 T00791104  RH  026%=      5-min Rain = 0
KWE1 112302Z 36018G24KT 08/M10 A3016 RMK A01 T00781103  RH  026%=      5-min Rain = 0
KWE1 112303Z 35018KT 08/M10 A3016 RMK A01 T00781103  RH  027%=      5-min Rain = 0
KWE1 112304Z 35016KT 08/M10 A3016 RMK A01 T00781102  RH  027%=      5-min Rain = 0
KWE1 112305Z 35017KT 08/M10 A3016 RMK A01 T00781101  RH  027%=      5-min Rain = 0
KWE1 112306Z 35020G25KT 08/M10 A3016 RMK A01 T00781099  RH  027%=      5-min Rain = 0
KWE1 112307Z 34021G28KT 08/M10 A3016 RMK A01 T00771103  RH  027%=      5-min Rain = 0
KWE1 112308Z 34026G31KT 08/M11 A3016 RMK A01 T00761105  RH  026%=      5-min Rain = 0
KWE1 112309Z 35025KT 08/M11 A3016 RMK A01 T00761106  RH  026%=      5-min Rain = 0
KWE1 112310Z 35025KT 08/M11 A3016 RMK A01 T00761106  RH  026%=      5-min Rain = 0
KWE1 112311Z 35022KT 08/M11 A3016 RMK A01 T00751107  RH  026%=      5-min Rain = 0
KWE1 112312Z 36022G27KT 08/M11 A3016 RMK A01 T00751106  RH  026%=      5-min Rain = 0
KWE1 112313Z 35023KT 07/M11 A3016 RMK A01 T00741107  RH  026%=      5-min Rain = 0
KWE1 112314Z 36021KT 07/M11 A3016 RMK A01 T00741107  RH  026%=      5-min Rain = 0
KWE1 112315Z 35019G24KT 07/M11 A3017 RMK A01 T00741106  RH  027%=      5-min Rain = 0
KWE1 112316Z 35018KT 07/M11 A3016 RMK A01 T00741105  RH  027%=      5-min Rain = 0
KWE1 112317Z 35017G22KT 07/M10 A3017 RMK A01 T00731104  RH  027%=      5-min Rain = 0
KWE1 112318Z 35022KT 07/M10 A3017 RMK A01 T00731104  RH  027%=      5-min Rain = 0
KWE1 112319Z 34022KT 07/M10 A3017 RMK A01 T00731103  RH  028%=      5-min Rain = 0
KWE1 112320Z 34019KT 07/M10 A3017 RMK A01 T00731102  RH  028%=      5-min Rain = 0
KWE1 112321Z 34018G23KT 07/M10 A3017 RMK A01 T00721100  RH  028%=      5-min Rain = 0
KWE1 112322Z 34019KT 07/M10 A3017 RMK A01 T00711099  RH  029%=      5-min Rain = 0
KWE1 112323Z 34019G25KT 07/M10 A3017 RMK A01 T00711099  RH  029%=      5-min Rain = 0
KWE1 112324Z 33016G23KT 07/M10 A3017 RMK A01 T00701100  RH  029%=      5-min Rain = 0
KWE1 112325Z 33016KT 07/M10 A3017 RMK A01 T00691099  RH  029%=      5-min Rain = 0
KWE1 112326Z 34016G21KT 07/M10 A3017 RMK A01 T00691099  RH  029%=      5-min Rain = 0
KWE1 112327Z 33013KT 07/M10 A3017 RMK A01 T00681098  RH  029%=      5-min Rain = 0
KWE1 112328Z 32015KT 07/M10 A3017 RMK A01 T00681097  RH  030%=      5-min Rain = 0
KWE1 112329Z 33015G20KT 07/M10 A3017 RMK A01 T00671097  RH  030%=      5-min Rain = 0
KWE1 112330Z 33016KT 07/M10 A3017 RMK A01 T00661097  RH  030%=      5-min Rain = 0
KWE1 112331Z 33018KT 07/M10 A3018 RMK A01 T00661098  RH  030%=      5-min Rain = 0
KWE1 112332Z 34017G23KT 07/M10 A3018 RMK A01 T00651099  RH  030%=      5-min Rain = 0
KWE1 112333Z 33018G23KT 07/M10 A3018 RMK A01 T00651099  RH  030%=      5-min Rain = 0
KWE1 112334Z 34019KT 07/M10 A3018 RMK A01 T00651100  RH  030%=      5-min Rain = 0
KWE1 112335Z 34017G24KT 07/M10 A3018 RMK A01 T00651100  RH  030%=      5-min Rain = 0
KWE1 112336Z 34016KT 06/M10 A3018 RMK A01 T00641100  RH  030%=      5-min Rain = 0
KWE1 112337Z 34020KT 06/M10 A3018 RMK A01 T00631101  RH  030%=      5-min Rain = 0
KWE1 112338Z 34019KT 06/M10 A3018 RMK A01 T00631102  RH  029%=      5-min Rain = 0
KWE1 112339Z 34019KT 06/M10 A3018 RMK A01 T00631102  RH  030%=      5-min Rain = 0
KWE1 112340Z 34020KT 06/M10 A3018 RMK A01 T00621103  RH  029%=      5-min Rain = 0
KWE1 112341Z 34018KT 06/M10 A3018 RMK A01 T00621103  RH  029%=      5-min Rain = 0
KWE1 112342Z 35019KT 06/M10 A3018 RMK A01 T00611103  RH  030%=      5-min Rain = 0
KWE1 112343Z 35019KT 06/M10 A3018 RMK A01 T00601104  RH  030%=      5-min Rain = 0
KWE1 112344Z 35018KT 06/M11 A3019 RMK A01 T00601105  RH  030%=      5-min Rain = 0
KWE1 112345Z 35017KT 06/M10 A3019 RMK A01 T00591104  RH  030%=      5-min Rain = 0
KWE1 112346Z 35018KT 06/M10 A3019 RMK A01 T00581104  RH  030%=      5-min Rain = 0
KWE1 112347Z 35016KT 06/M10 A3019 RMK A01 T00581104  RH  030%=      5-min Rain = 0
KWE1 112348Z 35017KT 06/M10 A3019 RMK A01 T00581104  RH  030%=      5-min Rain = 0
KWE1 112349Z 35016KT 06/M10 A3019 RMK A01 T00571104  RH  030%=      5-min Rain = 0
KWE1 112350Z 35016KT 06/M10 A3019 RMK A01 T00561103  RH  031%=      5-min Rain = 0
KWE1 112351Z 35017KT 06/M10 A3019 RMK A01 T00561104  RH  031%=      5-min Rain = 0
KWE1 112352Z 34016KT 06/M10 A3019 RMK A01 T00561104  RH  030%=      5-min Rain = 0
KWE1 112353Z 34017KT 06/M10 A3019 RMK A01 T00561104  RH  030%=      5-min Rain = 0
KWE1 112354Z 34015KT 06/M10 A3019 RMK A01 T00561104  RH  031%=      5-min Rain = 0
KWE1 112355Z 34014KT 06/M10 A3019 RMK A01 T00561103  RH  031%=      5-min Rain = 0
KWE1 112356Z 34014KT 05/M10 A3019 RMK A01 T00541103  RH  031%=      5-min Rain = 0
KWE1 112357Z 34013KT 05/M10 A302 RMK A01 T00541102  RH  032%=      5-min Rain = 0
KWE1 112358Z 33011KT 05/M10 A302 RMK A01 T00531101  RH  032%=      5-min Rain = 0
KWE1 112359Z 33013KT 05/M10 A302 RMK A01 T00521101  RH  032%=      5-min Rain = 0
KWE1 120000Z 33012KT 05/M10 A302 RMK A01 T00521101  RH  032%=      5-min Rain = 0
KWE1 120001Z 33012KT 05/M10 A302 RMK A01 T00521101  RH  032%=      5-min Rain = 0
KWE1 120002Z 34012KT 05/M10 A302 RMK A01 T00521101  RH  032%=      5-min Rain = 0
KWE1 120003Z 34013KT 05/M10 A302 RMK A01 T00521101  RH  032%=      5-min Rain = 0
KWE1 120004Z 34011KT 05/M10 A302 RMK A01 T00521101  RH  032%=      5-min Rain = 0
KWE1 120005Z 33011KT 05/M10 A302 RMK A01 T00511101  RH  032%=      5-min Rain = 0
KWE1 120006Z 33014G19KT 05/M10 A302 RMK A01 T00511101  RH  032%=      5-min Rain = 0
KWE1 120007Z 34015KT 05/M10 A302 RMK A01 T00511102  RH  032%=      5-min Rain = 0
KWE1 120008Z 33013KT 05/M10 A302 RMK A01 T00521101  RH  032%=      5-min Rain = 0
KWE1 120009Z 34014KT 05/M10 A3021 RMK A01 T00521101  RH  032%=      5-min Rain = 0
KWE1 120010Z 33013KT 05/M10 A3021 RMK A01 T00521101  RH  032%=      5-min Rain = 0
KWE1 120011Z 33011KT 05/M10 A3021 RMK A01 T00511101  RH  032%=      5-min Rain = 0
KWE1 120012Z 33012G17KT 05/M10 A3021 RMK A01 T00511100  RH  033%=      5-min Rain = 0
KWE1 120013Z 33011KT 05/M10 A3021 RMK A01 T00511100  RH  033%=      5-min Rain = 0
KWE1 120014Z 33011KT 05/M10 A3021 RMK A01 T00501101  RH  033%=      5-min Rain = 0
KWE1 120015Z 33010KT 05/M10 A3021 RMK A01 T00501101  RH  033%=      5-min Rain = 0
KWE1 120016Z 33010KT 05/M10 A3021 RMK A01 T00501100  RH  033%=      5-min Rain = 0
KWE1 120017Z 33012KT 05/M10 A3021 RMK A01 T00501100  RH  033%=      5-min Rain = 0
KWE1 120018Z 33011KT 05/M10 A3021 RMK A01 T00491100  RH  033%=      5-min Rain = 0
KWE1 120019Z 33011KT 05/M10 A3021 RMK A01 T00491100  RH  033%=      5-min Rain = 0
KWE1 120020Z 33010G16KT 05/M10 A3021 RMK A01 T00491100  RH  033%=      5-min Rain = 0
KWE1 120021Z 33011G16KT 05/M10 A3021 RMK A01 T00481100  RH  033%=      5-min Rain = 0
KWE1 120022Z 33011KT 05/M10 A3022 RMK A01 T00491099  RH  033%=      5-min Rain = 0
KWE1 120023Z 34011KT 05/M10 A3022 RMK A01 T00481099  RH  033%=      5-min Rain = 0
KWE1 120024Z 33011KT 05/M10 A3022 RMK A01 T00481099  RH  034%=      5-min Rain = 0
KWE1 120025Z 33013KT 05/M10 A3022 RMK A01 T00471099  RH  034%=      5-min Rain = 0
KWE1 120026Z 34017G22KT 05/M10 A3021 RMK A01 T00471099  RH  034%=      5-min Rain = 0
KWE1 120027Z 34016G22KT 05/M10 A3021 RMK A01 T00481099  RH  034%=      5-min Rain = 0
KWE1 120028Z 34016G22KT 05/M10 A3021 RMK A01 T00491099  RH  034%=      5-min Rain = 0
KWE1 120029Z 34017KT 05/M10 A3021 RMK A01 T00491099  RH  033%=      5-min Rain = 0
KWE1 120030Z 34015G21KT 05/M10 A3021 RMK A01 T00481099  RH  034%=      5-min Rain = 0
KWE1 120031Z 34015KT 05/M10 A3021 RMK A01 T00481099  RH  034%=      5-min Rain = 0
KWE1 120032Z 34016KT 05/M10 A3022 RMK A01 T00481098  RH  034%=      5-min Rain = 0
KWE1 120033Z 34013G18KT 05/M10 A3022 RMK A01 T00471098  RH  034%=      5-min Rain = 0
KWE1 120034Z 34015KT 05/M10 A3022 RMK A01 T00461098  RH  034%=      5-min Rain = 0
KWE1 120035Z 34014KT 05/M10 A3022 RMK A01 T00461097  RH  034%=      5-min Rain = 0
KWE1 120036Z 34013KT 05/M10 A3022 RMK A01 T00461097  RH  035%=      5-min Rain = 0
KWE1 120037Z 34014KT 05/M10 A3022 RMK A01 T00461097  RH  035%=      5-min Rain = 0
KWE1 120038Z 34013KT 05/M10 A3022 RMK A01 T00451097  RH  035%=      5-min Rain = 0
KWE1 120039Z 34012KT 05/M10 A3022 RMK A01 T00451097  RH  035%=      5-min Rain = 0
KWE1 120040Z 34013KT 04/M10 A3022 RMK A01 T00441097  RH  035%=      5-min Rain = 0
KWE1 120041Z 34015KT 04/M10 A3022 RMK A01 T00441096  RH  035%=      5-min Rain = 0
KWE1 120042Z 34016KT 04/M10 A3022 RMK A01 T00431097  RH  035%=      5-min Rain = 0
KWE1 120043Z 34015KT 04/M10 A3022 RMK A01 T00441096  RH  035%=      5-min Rain = 0
KWE1 120044Z 34014KT 04/M10 A3022 RMK A01 T00441096  RH  035%=      5-min Rain = 0
KWE1 120045Z 34015KT 04/M10 A3023 RMK A01 T00441096  RH  035%=      5-min Rain = 0
KWE1 120046Z 34014KT 04/M10 A3023 RMK A01 T00441096  RH  035%=      5-min Rain = 0
KWE1 120047Z 34013KT 04/M10 A3023 RMK A01 T00441096  RH  035%=      5-min Rain = 0
KWE1 120048Z 33014KT 04/M10 A3023 RMK A01 T00431095  RH  036%=      5-min Rain = 0
KWE1 120049Z 33013KT 04/M10 A3023 RMK A01 T00431096  RH  036%=      5-min Rain = 0
KWE1 120050Z 33013KT 04/M10 A3023 RMK A01 T00431096  RH  036%=      5-min Rain = 0
KWE1 120051Z 34013KT 04/M10 A3023 RMK A01 T00431095  RH  036%=      5-min Rain = 0
KWE1 120052Z 33014KT 04/M10 A3023 RMK A01 T00421096  RH  036%=      5-min Rain = 0
KWE1 120053Z 33015KT 04/M10 A3023 RMK A01 T00421096  RH  036%=      5-min Rain = 0
KWE1 120054Z 34015KT 04/M10 A3023 RMK A01 T00421096  RH  036%=      5-min Rain = 0
KWE1 120055Z 34015KT 04/M10 A3023 RMK A01 T00421096  RH  036%=      5-min Rain = 0
KWE1 120056Z 34019KT 04/M10 A3023 RMK A01 T00411096  RH  036%=      5-min Rain = 0
KWE1 120057Z 35017G22KT 04/M10 A3023 RMK A01 T00411097  RH  036%=      5-min Rain = 0
KWE1 120058Z 34020KT 04/M10 A3023 RMK A01 T00411097  RH  036%=      5-min Rain = 0
KWE1 120059Z 35020KT 04/M10 A3023 RMK A01 T00411097  RH  036%=      5-min Rain = 0
KWE1 120100Z 34020KT 04/M10 A3023 RMK A01 T00411098  RH  036%=      5-min Rain = 0
KWE1 120101Z 35019KT 04/M10 A3023 RMK A01 T00411099  RH  035%=      5-min Rain = 0
KWE1 120102Z 35017KT 04/M10 A3023 RMK A01 T00411099  RH  035%=      5-min Rain = 0
KWE1 120103Z 35019G24KT 04/M10 A3023 RMK A01 T00401099  RH  035%=      5-min Rain = 0
KWE1 120104Z 35017KT 04/M10 A3023 RMK A01 T00401099  RH  035%=      5-min Rain = 0
KWE1 120105Z 35019KT 04/M10 A3023 RMK A01 T00401098  RH  036%=      5-min Rain = 0
KWE1 120106Z 35016KT 04/M10 A3023 RMK A01 T00401098  RH  036%=      5-min Rain = 0
KWE1 120107Z 35019KT 04/M10 A3023 RMK A01 T00391099  RH  036%=      5-min Rain = 0
KWE1 120108Z 35018KT 04/M10 A3023 RMK A01 T00391098  RH  036%=      5-min Rain = 0
KWE1 120109Z 35017KT 04/M10 A3023 RMK A01 T00391099  RH  036%=      5-min Rain = 0
KWE1 120110Z 35018KT 04/M10 A3023 RMK A01 T00381098  RH  036%=      5-min Rain = 0
KWE1 120111Z 35017KT 04/M10 A3024 RMK A01 T00381098  RH  036%=      5-min Rain = 0
KWE1 120112Z 35017KT 04/M10 A3024 RMK A01 T00381098  RH  036%=      5-min Rain = 0
KWE1 120113Z 35017KT 04/M10 A3024 RMK A01 T00371098  RH  037%=      5-min Rain = 0
KWE1 120114Z 35017KT 04/M10 A3024 RMK A01 T00371097  RH  037%=      5-min Rain = 0
KWE1 120115Z 35018KT 04/M10 A3024 RMK A01 T00371097  RH  037%=      5-min Rain = 0
KWE1 120116Z 35017KT 04/M10 A3024 RMK A01 T00361098  RH  037%=      5-min Rain = 0
KWE1 120117Z 35016KT 04/M10 A3024 RMK A01 T00361098  RH  037%=      5-min Rain = 0
KWE1 120118Z 35016KT 04/M10 A3024 RMK A01 T00361097  RH  037%=      5-min Rain = 0
KWE1 120119Z 35017KT 04/M10 A3024 RMK A01 T00361097  RH  037%=      5-min Rain = 0
KWE1 120120Z 35017KT 04/M10 A3024 RMK A01 T00361097  RH  037%=      5-min Rain = 0
KWE1 120121Z 35016G21KT 04/M10 A3024 RMK A01 T00361097  RH  037%=      5-min Rain = 0
KWE1 120122Z 35014KT 04/M10 A3024 RMK A01 T00351097  RH  037%=      5-min Rain = 0
KWE1 120123Z 34016KT 04/M10 A3024 RMK A01 T00351097  RH  038%=      5-min Rain = 0
KWE1 120124Z 35016KT 03/M10 A3024 RMK A01 T00341097  RH  038%=      5-min Rain = 0
KWE1 120125Z 34015KT 03/M10 A3024 RMK A01 T00341096  RH  038%=      5-min Rain = 0
KWE1 120126Z 35015G20KT 03/M10 A3024 RMK A01 T00341096  RH  038%=      5-min Rain = 0
KWE1 120127Z 35014KT 03/M10 A3024 RMK A01 T00331096  RH  038%=      5-min Rain = 0
KWE1 120128Z 34014KT 03/M10 A3024 RMK A01 T00331096  RH  038%=      5-min Rain = 0
KWE1 120129Z 34015KT 03/M10 A3024 RMK A01 T00331096  RH  038%=      5-min Rain = 0
KWE1 120130Z 35014KT 03/M10 A3024 RMK A01 T00331096  RH  038%=      5-min Rain = 0
KWE1 120131Z 35013KT 03/M10 A3024 RMK A01 T00321096  RH  038%=      5-min Rain = 0
KWE1 120132Z 35014KT 03/M10 A3025 RMK A01 T00311096  RH  039%=      5-min Rain = 0
KWE1 120133Z 35014KT 03/M10 A3025 RMK A01 T00311096  RH  039%=      5-min Rain = 0
KWE1 120134Z 35015KT 03/M10 A3025 RMK A01 T00301096  RH  039%=      5-min Rain = 0
KWE1 120135Z 34013KT 03/M10 A3025 RMK A01 T00301096  RH  039%=      5-min Rain = 0
KWE1 120136Z 35012KT 03/M10 A3025 RMK A01 T00301096  RH  039%=      5-min Rain = 0
KWE1 120137Z 34012KT 03/M10 A3025 RMK A01 T00291096  RH  039%=      5-min Rain = 0
KWE1 120138Z 34012KT 03/M10 A3025 RMK A01 T00281095  RH  040%=      5-min Rain = 0
KWE1 120139Z 34012KT 03/M10 A3025 RMK A01 T00271095  RH  040%=      5-min Rain = 0
KWE1 120140Z 35013KT 03/M10 A3025 RMK A01 T00281095  RH  040%=      5-min Rain = 0
KWE1 120141Z 35013KT 03/M10 A3025 RMK A01 T00281095  RH  040%=      5-min Rain = 0
KWE1 120142Z 35014KT 03/M09 A3025 RMK A01 T00281094  RH  040%=      5-min Rain = 0
KWE1 120143Z 34014KT 03/M09 A3025 RMK A01 T00291094  RH  040%=      5-min Rain = 0
KWE1 120144Z 34013KT 03/M10 A3025 RMK A01 T00281095  RH  040%=      5-min Rain = 0
KWE1 120145Z 34013KT 03/M09 A3025 RMK A01 T00281094  RH  040%=      5-min Rain = 0
KWE1 120146Z 34014KT 03/M09 A3025 RMK A01 T00281094  RH  040%=      5-min Rain = 0
KWE1 120147Z 34014KT 03/M09 A3025 RMK A01 T00281094  RH  040%=      5-min Rain = 0
KWE1 120148Z 34014KT 03/M09 A3025 RMK A01 T00281094  RH  040%=      5-min Rain = 0
KWE1 120149Z 34014KT 03/M09 A3025 RMK A01 T00281094  RH  040%=      5-min Rain = 0
KWE1 120150Z 34015KT 03/M09 A3025 RMK A01 T00281093  RH  041%=      5-min Rain = 0
KWE1 120151Z 34014KT 03/M09 A3025 RMK A01 T00281093  RH  040%=      5-min Rain = 0
KWE1 120152Z 34015KT 03/M09 A3025 RMK A01 T00281093  RH  040%=      5-min Rain = 0
KWE1 120153Z 34016KT 03/M09 A3025 RMK A01 T00291093  RH  040%=      5-min Rain = 0
KWE1 120154Z 34015KT 03/M09 A3025 RMK A01 T00281093  RH  040%=      5-min Rain = 0
KWE1 120155Z 34013KT 03/M09 A3025 RMK A01 T00291093  RH  040%=      5-min Rain = 0
KWE1 120156Z 34014G19KT 03/M09 A3025 RMK A01 T00291093  RH  040%=      5-min Rain = 0
KWE1 120157Z 34016KT 03/M09 A3025 RMK A01 T00291093  RH  040%=      5-min Rain = 0
KWE1 120158Z 34014KT 03/M09 A3025 RMK A01 T00281093  RH  040%=      5-min Rain = 0
KWE1 120159Z 34014KT 03/M09 A3025 RMK A01 T00281093  RH  041%=      5-min Rain = 0
KWE1 120200Z 34016KT 03/M09 A3025 RMK A01 T00281093  RH  041%=      5-min Rain = 0
KWE1 120201Z 34015KT 03/M09 A3025 RMK A01 T00281093  RH  041%=      5-min Rain = 0
KWE1 120202Z 34014KT 03/M09 A3025 RMK A01 T00281093  RH  041%=      5-min Rain = 0
KWE1 120203Z 34015KT 03/M09 A3025 RMK A01 T00271092  RH  041%=      5-min Rain = 0
KWE1 120204Z 34015KT 03/M09 A3025 RMK A01 T00271092  RH  041%=      5-min Rain = 0
KWE1 120205Z 34015KT 03/M09 A3025 RMK A01 T00271092  RH  041%=      5-min Rain = 0
KWE1 120206Z 34015KT 03/M09 A3025 RMK A01 T00261092  RH  041%=      5-min Rain = 0
KWE1 120207Z 34015KT 03/M09 A3025 RMK A01 T00261092  RH  042%=      5-min Rain = 0
KWE1 120208Z 34013KT 03/M09 A3026 RMK A01 T00261091  RH  042%=      5-min Rain = 0
KWE1 120209Z 34014KT 03/M09 A3026 RMK A01 T00261091  RH  042%=      5-min Rain = 0
KWE1 120210Z 34015KT 03/M09 A3026 RMK A01 T00261091  RH  042%=      5-min Rain = 0
KWE1 120211Z 34014KT 03/M09 A3026 RMK A01 T00261091  RH  042%=      5-min Rain = 0
KWE1 120212Z 34016KT 03/M09 A3026 RMK A01 T00261091  RH  042%=      5-min Rain = 0
KWE1 120213Z 34016KT 03/M09 A3026 RMK A01 T00271091  RH  042%=      5-min Rain = 0
KWE1 120214Z 34015G21KT 03/M09 A3026 RMK A01 T00271090  RH  042%=      5-min Rain = 0
KWE1 120215Z 34016KT 03/M09 A3026 RMK A01 T00271091  RH  042%=      5-min Rain = 0
KWE1 120216Z 34019G27KT 03/M09 A3026 RMK A01 T00281091  RH  041%=      5-min Rain = 0
KWE1 120217Z 34017KT 03/M09 A3026 RMK A01 T00291090  RH  041%=      5-min Rain = 0
KWE1 120218Z 34016KT 03/M09 A3026 RMK A01 T00291090  RH  041%=      5-min Rain = 0
KWE1 120219Z 34017KT 03/M09 A3026 RMK A01 T00281091  RH  041%=      5-min Rain = 0
KWE1 120220Z 34016KT 03/M09 A3026 RMK A01 T00281091  RH  041%=      5-min Rain = 0
KWE1 120221Z 34018G23KT 03/M09 A3026 RMK A01 T00281090  RH  042%=      5-min Rain = 0
KWE1 120222Z 34019KT 03/M09 A3026 RMK A01 T00281090  RH  042%=      5-min Rain = 0
KWE1 120223Z 34021KT 03/M09 A3026 RMK A01 T00291090  RH  041%=      5-min Rain = 0
KWE1 120224Z 34018KT 03/M09 A3027 RMK A01 T00291090  RH  041%=      5-min Rain = 0
KWE1 120225Z 34018KT 03/M09 A3027 RMK A01 T00291090  RH  041%=      5-min Rain = 0
KWE1 120226Z 34018KT 03/M09 A3027 RMK A01 T00291090  RH  041%=      5-min Rain = 0
KWE1 120227Z 34017KT 03/M09 A3027 RMK A01 T00291090  RH  041%=      5-min Rain = 0
KWE1 120228Z 34019KT 03/M09 A3027 RMK A01 T00281090  RH  041%=      5-min Rain = 0
KWE1 120229Z 34018KT 03/M09 A3027 RMK A01 T00291090  RH  041%=      5-min Rain = 0
KWE1 120230Z 34016KT 03/M09 A3027 RMK A01 T00281090  RH  041%=      5-min Rain = 0
KWE1 120231Z 34017KT 03/M09 A3027 RMK A01 T00281090  RH  042%=      5-min Rain = 0
KWE1 120232Z 34017KT 03/M09 A3027 RMK A01 T00271089  RH  042%=      5-min Rain = 0
KWE1 120233Z 34018KT 03/M09 A3027 RMK A01 T00271089  RH  042%=      5-min Rain = 0
KWE1 120234Z 34017KT 03/M09 A3027 RMK A01 T00271089  RH  042%=      5-min Rain = 0
KWE1 120235Z 34017KT 03/M09 A3027 RMK A01 T00271089  RH  042%=      5-min Rain = 0
KWE1 120236Z 34018KT 03/M09 A3027 RMK A01 T00271089  RH  042%=      5-min Rain = 0
KWE1 120237Z 34017KT 03/M09 A3027 RMK A01 T00281089  RH  042%=      5-min Rain = 0
KWE1 120238Z 34015KT 03/M09 A3027 RMK A01 T00271089  RH  042%=      5-min Rain = 0
KWE1 120239Z 34014KT 03/M09 A3027 RMK A01 T00261089  RH  042%=      5-min Rain = 0
KWE1 120240Z 34014KT 03/M09 A3027 RMK A01 T00251089  RH  043%=      5-min Rain = 0
KWE1 120241Z 34016KT 03/M09 A3027 RMK A01 T00251089  RH  043%=      5-min Rain = 0
KWE1 120242Z 34013KT 03/M09 A3027 RMK A01 T00251089  RH  043%=      5-min Rain = 0
KWE1 120243Z 34014KT 03/M09 A3027 RMK A01 T00251089  RH  043%=      5-min Rain = 0
KWE1 120244Z 34016G22KT 02/M09 A3027 RMK A01 T00241089  RH  043%=      5-min Rain = 0
KWE1 120245Z 34017KT 03/M09 A3028 RMK A01 T00251089  RH  043%=      5-min Rain = 0
KWE1 120246Z 34017KT 03/M09 A3028 RMK A01 T00251089  RH  043%=      5-min Rain = 0
KWE1 120247Z 34014KT 03/M09 A3028 RMK A01 T00261089  RH  043%=      5-min Rain = 0
KWE1 120248Z 34016KT 03/M09 A3028 RMK A01 T00261089  RH  043%=      5-min Rain = 0
KWE1 120249Z 34016KT 03/M09 A3028 RMK A01 T00261089  RH  043%=      5-min Rain = 0
KWE1 120250Z 34018KT 03/M09 A3028 RMK A01 T00261089  RH  043%=      5-min Rain = 0
KWE1 120251Z 33017KT 03/M09 A3028 RMK A01 T00261088  RH  043%=      5-min Rain = 0
KWE1 120252Z 34015KT 03/M09 A3028 RMK A01 T00271089  RH  042%=      5-min Rain = 0
KWE1 120253Z 34016KT 03/M09 A3028 RMK A01 T00271088  RH  042%=      5-min Rain = 0
KWE1 120254Z 34017KT 03/M09 A3028 RMK A01 T00261089  RH  042%=      5-min Rain = 0
KWE1 120255Z 34018KT 03/M09 A3028 RMK A01 T00261089  RH  042%=      5-min Rain = 0
KWE1 120256Z 34015KT 03/M09 A3028 RMK A01 T00271089  RH  042%=      5-min Rain = 0
KWE1 120257Z 33014G21KT 03/M09 A3028 RMK A01 T00261089  RH  042%=      5-min Rain = 0
KWE1 120258Z 34015KT 03/M09 A3028 RMK A01 T00261089  RH  043%=      5-min Rain = 0
KWE1 120259Z 34016G21KT 03/M09 A3028 RMK A01 T00261089  RH  043%=      5-min Rain = 0
KWE1 120300Z 34017KT 03/M09 A3028 RMK A01 T00261088  RH  043%=      5-min Rain = 0
KWE1 120301Z 34016KT 03/M09 A3028 RMK A01 T00261089  RH  043%=      5-min Rain = 0
KWE1 120302Z 34017G22KT 03/M09 A3028 RMK A01 T00251089  RH  043%=      5-min Rain = 0
KWE1 120303Z 34017KT 03/M09 A3028 RMK A01 T00251089  RH  043%=      5-min Rain = 0
KWE1 120304Z 34017KT 03/M09 A3028 RMK A01 T00251089  RH  043%=      5-min Rain = 0
KWE1 120305Z 34017KT 03/M09 A3028 RMK A01 T00251089  RH  043%=      5-min Rain = 0
KWE1 120306Z 34015KT 03/M09 A3028 RMK A01 T00251088  RH  043%=      5-min Rain = 0
KWE1 120307Z 34015KT 02/M09 A3029 RMK A01 T00241088  RH  043%=      5-min Rain = 0
KWE1 120308Z 34014KT 02/M09 A3029 RMK A01 T00241088  RH  043%=      5-min Rain = 0
KWE1 120309Z 34016KT 02/M09 A3029 RMK A01 T00241088  RH  043%=      5-min Rain = 0
KWE1 120310Z 34016KT 02/M09 A3029 RMK A01 T00241088  RH  043%=      5-min Rain = 0
KWE1 120311Z 34015KT 03/M09 A3029 RMK A01 T00251088  RH  043%=      5-min Rain = 0
KWE1 120312Z 34014KT 02/M09 A3029 RMK A01 T00241088  RH  043%=      5-min Rain = 0
KWE1 120313Z 34014KT 02/M09 A3029 RMK A01 T00231089  RH  043%=      5-min Rain = 0
KWE1 120314Z 34015KT 02/M09 A3029 RMK A01 T00231089  RH  044%=      5-min Rain = 0
KWE1 120315Z 34014KT 02/M09 A3029 RMK A01 T00231089  RH  044%=      5-min Rain = 0
KWE1 120316Z 34015KT 02/M09 A3029 RMK A01 T00231088  RH  044%=      5-min Rain = 0
KWE1 120317Z 34015KT 02/M09 A3029 RMK A01 T00231089  RH  044%=      5-min Rain = 0
KWE1 120318Z 34014KT 02/M09 A3029 RMK A01 T00231089  RH  043%=      5-min Rain = 0
KWE1 120319Z 34016KT 02/M09 A3029 RMK A01 T00231089  RH  043%=      5-min Rain = 0
KWE1 120320Z 34014KT 02/M09 A3029 RMK A01 T00231089  RH  043%=      5-min Rain = 0
KWE1 120321Z 34014KT 02/M09 A3029 RMK A01 T00231089  RH  043%=      5-min Rain = 0
KWE1 120322Z 34015KT 02/M09 A3029 RMK A01 T00221089  RH  044%=      5-min Rain = 0
KWE1 120323Z 34015KT 02/M09 A3029 RMK A01 T00221089  RH  044%=      5-min Rain = 0
KWE1 120324Z 34015KT 02/M09 A3029 RMK A01 T00221090  RH  043%=      5-min Rain = 0
KWE1 120325Z 35014KT 02/M09 A3029 RMK A01 T00231089  RH  043%=      5-min Rain = 0
KWE1 120326Z 35016KT 02/M09 A3029 RMK A01 T00231090  RH  043%=      5-min Rain = 0
KWE1 120327Z 35016KT 02/M09 A3029 RMK A01 T00231090  RH  043%=      5-min Rain = 0
KWE1 120328Z 35016KT 02/M09 A3029 RMK A01 T00231091  RH  043%=      5-min Rain = 0
KWE1 120329Z 35015KT 02/M09 A3029 RMK A01 T00231090  RH  043%=      5-min Rain = 0
KWE1 120330Z 35017KT 02/M09 A303 RMK A01 T00231091  RH  043%=      5-min Rain = 0
KWE1 120331Z 35016KT 02/M09 A303 RMK A01 T00231090  RH  043%=      5-min Rain = 0
KWE1 120332Z 34016KT 02/M09 A303 RMK A01 T00241090  RH  043%=      5-min Rain = 0
KWE1 120333Z 35016KT 02/M09 A303 RMK A01 T00241090  RH  043%=      5-min Rain = 0
KWE1 120334Z 35018KT 02/M09 A303 RMK A01 T00241090  RH  043%=      5-min Rain = 0
KWE1 120335Z 35017KT 02/M09 A303 RMK A01 T00241091  RH  042%=      5-min Rain = 0
KWE1 120336Z 35018KT 02/M09 A303 RMK A01 T00241091  RH  042%=      5-min Rain = 0
KWE1 120337Z 35016KT 02/M09 A303 RMK A01 T00241091  RH  042%=      5-min Rain = 0
KWE1 120338Z 36017KT 02/M09 A303 RMK A01 T00241091  RH  042%=      5-min Rain = 0
KWE1 120339Z 36018G23KT 02/M09 A303 RMK A01 T00241091  RH  042%=      5-min Rain = 0
KWE1 120340Z 35018KT 02/M09 A303 RMK A01 T00241091  RH  042%=      5-min Rain = 0
KWE1 120341Z 35018KT 02/M09 A303 RMK A01 T00241091  RH  042%=      5-min Rain = 0
KWE1 120342Z 36017KT 02/M09 A303 RMK A01 T00241091  RH  042%=      5-min Rain = 0
KWE1 120343Z 36017KT 02/M09 A303 RMK A01 T00241091  RH  042%=      5-min Rain = 0
KWE1 120344Z 36017KT 02/M09 A303 RMK A01 T00241091  RH  042%=      5-min Rain = 0
KWE1 120345Z 00016KT 02/M09 A303 RMK A01 T00231091  RH  043%=      5-min Rain = 0
KWE1 120346Z 36017KT 02/M09 A303 RMK A01 T00231091  RH  043%=      5-min Rain = 0
KWE1 120347Z 36017KT 02/M09 A303 RMK A01 T00231091  RH  043%=      5-min Rain = 0
KWE1 120348Z 36016KT 02/M09 A303 RMK A01 T00231091  RH  043%=      5-min Rain = 0
KWE1 120349Z 36014KT 02/M09 A303 RMK A01 T00231091  RH  043%=      5-min Rain = 0
KWE1 120350Z 36016KT 02/M09 A303 RMK A01 T00221092  RH  043%=      5-min Rain = 0
KWE1 120351Z 35015KT 02/M09 A303 RMK A01 T00211092  RH  043%=      5-min Rain = 0
KWE1 120352Z 35014KT 02/M09 A303 RMK A01 T00221091  RH  043%=      5-min Rain = 0
KWE1 120353Z 36013KT 02/M09 A3031 RMK A01 T00211091  RH  043%=      5-min Rain = 0
KWE1 120354Z 36013KT 02/M09 A3031 RMK A01 T00201092  RH  043%=      5-min Rain = 0
KWE1 120355Z 00015KT 02/M09 A303 RMK A01 T00201092  RH  043%=      5-min Rain = 0
KWE1 120356Z 36013KT 02/M09 A3031 RMK A01 T00201091  RH  044%=      5-min Rain = 0
KWE1 120357Z 00012KT 02/M09 A3031 RMK A01 T00191091  RH  044%=      5-min Rain = 0
KWE1 120358Z 00014KT 02/M09 A3031 RMK A01 T00191091  RH  044%=      5-min Rain = 0
KWE1 120359Z 00014KT 02/M09 A3031 RMK A01 T00191091  RH  044%=      5-min Rain = 0
KWE1 120400Z 36015KT 02/M09 A3031 RMK A01 T00191091  RH  044%=      5-min Rain = 0
KWE1 120401Z 00013KT 02/M09 A3031 RMK A01 T00191091  RH  044%=      5-min Rain = 0
KWE1 120402Z 01015KT 02/M09 A3031 RMK A01 T00191090  RH  044%=      5-min Rain = 0
KWE1 120403Z 01014KT 02/M09 A3031 RMK A01 T00191091  RH  044%=      5-min Rain = 0
KWE1 120404Z 00013KT 02/M09 A3031 RMK A01 T00191091  RH  044%=      5-min Rain = 0
KWE1 120405Z 00014KT 02/M09 A3031 RMK A01 T00191090  RH  044%=      5-min Rain = 0
KWE1 120406Z 00011KT 02/M09 A3031 RMK A01 T00181090  RH  044%=      5-min Rain = 0
KWE1 120407Z 01014KT 02/M09 A3031 RMK A01 T00171090  RH  045%=      5-min Rain = 0
KWE1 120408Z 00012KT 02/M09 A303 RMK A01 T00171090  RH  045%=      5-min Rain = 0
KWE1 120409Z 01011KT 02/M09 A3031 RMK A01 T00171090  RH  045%=      5-min Rain = 0
KWE1 120410Z 01011KT 02/M09 A3031 RMK A01 T00161090  RH  045%=      5-min Rain = 0
KWE1 120411Z 00012KT 02/M09 A3031 RMK A01 T00161090  RH  045%=      5-min Rain = 0
KWE1 120412Z 00012KT 02/M09 A3031 RMK A01 T00151090  RH  046%=      5-min Rain = 0
KWE1 120413Z 00010KT 02/M09 A3031 RMK A01 T00151090  RH  046%=      5-min Rain = 0
KWE1 120414Z 00010KT 01/M09 A3031 RMK A01 T00141090  RH  046%=      5-min Rain = 0
KWE1 120415Z 36010KT 01/M09 A3031 RMK A01 T00131091  RH  046%=      5-min Rain = 0
KWE1 120416Z 00011KT 01/M09 A3031 RMK A01 T00131091  RH  046%=      5-min Rain = 0
KWE1 120417Z 00010KT 01/M09 A3031 RMK A01 T00131090  RH  046%=      5-min Rain = 0
KWE1 120418Z 00011KT 01/M09 A3031 RMK A01 T00121090  RH  046%=      5-min Rain = 0
KWE1 120419Z 00012KT 01/M09 A3031 RMK A01 T00121090  RH  046%=      5-min Rain = 0
KWE1 120420Z 00011KT 01/M09 A3031 RMK A01 T00131091  RH  046%=      5-min Rain = 0
KWE1 120421Z 00011KT 01/M09 A3031 RMK A01 T00131091  RH  046%=      5-min Rain = 0
KWE1 120422Z 00011KT 01/M09 A3031 RMK A01 T00131091  RH  046%=      5-min Rain = 0
KWE1 120423Z 36011KT 01/M09 A3031 RMK A01 T00121091  RH  046%=      5-min Rain = 0
KWE1 120424Z 00012KT 01/M09 A3031 RMK A01 T00121091  RH  046%=      5-min Rain = 0
KWE1 120425Z 36012KT 01/M09 A3031 RMK A01 T00121091  RH  046%=      5-min Rain = 0
KWE1 120426Z 00012KT 01/M09 A3031 RMK A01 T00111091  RH  046%=      5-min Rain = 0
KWE1 120427Z 01012KT 01/M09 A3031 RMK A01 T00111091  RH  046%=      5-min Rain = 0
KWE1 120428Z 01012KT 01/M09 A3031 RMK A01 T00111091  RH  046%=      5-min Rain = 0
KWE1 120429Z 01011KT 01/M09 A3031 RMK A01 T00111091  RH  046%=      5-min Rain = 0
KWE1 120430Z 01011KT 01/M09 A3031 RMK A01 T00111090  RH  047%=      5-min Rain = 0
KWE1 120431Z 01012KT 01/M09 A3031 RMK A01 T00101090  RH  047%=      5-min Rain = 0
KWE1 120432Z 01012KT 01/M09 A3031 RMK A01 T00101090  RH  047%=      5-min Rain = 0
KWE1 120433Z 01012KT 01/M09 A3031 RMK A01 T00101090  RH  047%=      5-min Rain = 0
KWE1 120434Z 01014KT 01/M09 A3031 RMK A01 T00111090  RH  047%=      5-min Rain = 0
KWE1 120435Z 01012KT 01/M09 A3031 RMK A01 T00111090  RH  047%=      5-min Rain = 0
KWE1 120436Z 01014KT 01/M09 A3031 RMK A01 T00111090  RH  047%=      5-min Rain = 0
KWE1 120437Z 01013KT 01/M09 A3031 RMK A01 T00111091  RH  046%=      5-min Rain = 0
KWE1 120438Z 01013KT 01/M09 A3031 RMK A01 T00121091  RH  046%=      5-min Rain = 0
KWE1 120439Z 01012KT 01/M09 A3031 RMK A01 T00121091  RH  046%=      5-min Rain = 0
KWE1 120440Z 01015KT 01/M09 A3031 RMK A01 T00111091  RH  046%=      5-min Rain = 0
KWE1 120441Z 01015KT 01/M09 A3031 RMK A01 T00111091  RH  046%=      5-min Rain = 0
KWE1 120442Z 01015KT 01/M09 A3031 RMK A01 T00111092  RH  046%=      5-min Rain = 0
KWE1 120443Z 01014KT 01/M09 A3031 RMK A01 T00111093  RH  046%=      5-min Rain = 0
KWE1 120444Z 02015KT 01/M09 A3031 RMK A01 T00111093  RH  046%=      5-min Rain = 0
KWE1 120445Z 02016KT 01/M09 A3031 RMK A01 T00111094  RH  045%=      5-min Rain = 0
KWE1 120446Z 01016KT 01/M10 A303 RMK A01 T00111095  RH  045%=      5-min Rain = 0
KWE1 120447Z 02015KT 01/M10 A303 RMK A01 T00111095  RH  045%=      5-min Rain = 0
KWE1 120448Z 02013G18KT 01/M10 A303 RMK A01 T00111095  RH  045%=      5-min Rain = 0
KWE1 120449Z 02019G24KT 01/M10 A303 RMK A01 T00121095  RH  045%=      5-min Rain = 0
KWE1 120450Z 02014G19KT 01/M10 A303 RMK A01 T00121096  RH  044%=      5-min Rain = 0
KWE1 120451Z 02015G20KT 01/M10 A303 RMK A01 T00131096  RH  044%=      5-min Rain = 0
KWE1 120452Z 01016KT 01/M10 A303 RMK A01 T00121097  RH  044%=      5-min Rain = 0
KWE1 120453Z 02015KT 01/M10 A303 RMK A01 T00121097  RH  044%=      5-min Rain = 0
KWE1 120454Z 02015G20KT 01/M10 A303 RMK A01 T00111097  RH  044%=      5-min Rain = 0
KWE1 120455Z 02014KT 01/M10 A303 RMK A01 T00111097  RH  044%=      5-min Rain = 0
KWE1 120456Z 01013G18KT 01/M10 A303 RMK A01 T00111097  RH  044%=      5-min Rain = 0
KWE1 120457Z 02014KT 01/M10 A303 RMK A01 T00101098  RH  044%=      5-min Rain = 0
KWE1 120458Z 02015KT 01/M10 A303 RMK A01 T00091098  RH  045%=      5-min Rain = 0
KWE1 120459Z 02016KT 01/M10 A303 RMK A01 T00091098  RH  045%=      5-min Rain = 0
KWE1 120500Z 02017KT 01/M10 A303 RMK A01 T00101098  RH  045%=      5-min Rain = 0
KWE1 120501Z 02016KT 01/M10 A303 RMK A01 T00101098  RH  044%=      5-min Rain = 0
KWE1 120502Z 01018KT 01/M10 A303 RMK A01 T00101098  RH  044%=      5-min Rain = 0
KWE1 120503Z 02016KT 01/M10 A303 RMK A01 T00101098  RH  044%=      5-min Rain = 0
KWE1 120504Z 01015KT 01/M10 A303 RMK A01 T00101099  RH  044%=      5-min Rain = 0
KWE1 120505Z 01016KT 01/M10 A303 RMK A01 T00091099  RH  044%=      5-min Rain = 0
KWE1 120506Z 01015KT 01/M10 A303 RMK A01 T00091099  RH  044%=      5-min Rain = 0
KWE1 120507Z 01016KT 01/M10 A303 RMK A01 T00081099  RH  045%=      5-min Rain = 0
KWE1 120508Z 01014KT 01/M10 A303 RMK A01 T00081099  RH  045%=      5-min Rain = 0
KWE1 120509Z 01016G21KT 01/M10 A303 RMK A01 T00081099  RH  045%=      5-min Rain = 0
KWE1 120510Z 01017KT 01/M10 A303 RMK A01 T00081100  RH  044%=      5-min Rain = 0
KWE1 120511Z 01016G21KT 01/M10 A303 RMK A01 T00091099  RH  044%=      5-min Rain = 0
KWE1 120512Z 02015KT 01/M10 A303 RMK A01 T00091099  RH  044%=      5-min Rain = 0
KWE1 120513Z 01013KT 01/M10 A303 RMK A01 T00091099  RH  044%=      5-min Rain = 0
KWE1 120514Z 01015KT 01/M10 A303 RMK A01 T00091098  RH  044%=      5-min Rain = 0
KWE1 120515Z 01014KT 01/M10 A303 RMK A01 T00081099  RH  045%=      5-min Rain = 0
KWE1 120516Z 01016KT 01/M10 A3031 RMK A01 T00081099  RH  045%=      5-min Rain = 0
KWE1 120517Z 02016G23KT 01/M10 A3031 RMK A01 T00081099  RH  044%=      5-min Rain = 0
KWE1 120518Z 01015G20KT 01/M10 A3031 RMK A01 T00081100  RH  044%=      5-min Rain = 0
KWE1 120519Z 01016KT 01/M10 A3031 RMK A01 T00081100  RH  044%=      5-min Rain = 0
KWE1 120520Z 01017KT 01/M10 A3031 RMK A01 T00081100  RH  044%=      5-min Rain = 0
KWE1 120521Z 01016KT 01/M10 A3031 RMK A01 T00081101  RH  044%=      5-min Rain = 0
KWE1 120522Z 01016G21KT 01/M10 A3031 RMK A01 T00081101  RH  044%=      5-min Rain = 0
KWE1 120523Z 02014G19KT 01/M10 A3031 RMK A01 T00081101  RH  044%=      5-min Rain = 0
KWE1 120524Z 02013KT 01/M10 A3031 RMK A01 T00071101  RH  044%=      5-min Rain = 0
KWE1 120525Z 02016G21KT 01/M10 A3031 RMK A01 T00061101  RH  044%=      5-min Rain = 0
KWE1 120526Z 02016KT 01/M10 A3031 RMK A01 T00061101  RH  044%=      5-min Rain = 0
KWE1 120527Z 02013KT 01/M10 A3031 RMK A01 T00061102  RH  044%=      5-min Rain = 0
KWE1 120528Z 01015KT 01/M10 A3032 RMK A01 T00051102  RH  045%=      5-min Rain = 0
KWE1 120529Z 01013KT 01/M10 A3032 RMK A01 T00051102  RH  045%=      5-min Rain = 0
KWE1 120530Z 01013KT 00/M10 A3032 RMK A01 T00041102  RH  045%=      5-min Rain = 0
KWE1 120531Z 02014KT 00/M10 A3032 RMK A01 T00041102  RH  045%=      5-min Rain = 0
KWE1 120532Z 01014KT 00/M10 A3032 RMK A01 T00041102  RH  045%=      5-min Rain = 0
KWE1 120533Z 01015G20KT 00/M10 A3032 RMK A01 T00041102  RH  045%=      5-min Rain = 0
KWE1 120534Z 01017KT 00/M10 A3032 RMK A01 T00041102  RH  045%=      5-min Rain = 0
KWE1 120535Z 01013KT 01/M10 A3032 RMK A01 T00051102  RH  044%=      5-min Rain = 0
KWE1 120536Z 01014KT 01/M10 A3032 RMK A01 T00051102  RH  045%=      5-min Rain = 0
KWE1 120537Z 01012KT 00/M10 A3032 RMK A01 T00041102  RH  045%=      5-min Rain = 0
KWE1 120538Z 01016KT 00/M10 A3032 RMK A01 T00031102  RH  045%=      5-min Rain = 0
KWE1 120539Z 01015KT 00/M10 A3032 RMK A01 T00031103  RH  045%=      5-min Rain = 0
KWE1 120540Z 01012KT 00/M10 A3032 RMK A01 T00031102  RH  045%=      5-min Rain = 0
KWE1 120541Z 01011KT 00/M10 A3032 RMK A01 T00021103  RH  045%=      5-min Rain = 0
KWE1 120542Z 01012KT 00/M10 A3032 RMK A01 T00021103  RH  045%=      5-min Rain = 0
KWE1 120543Z 01011KT 00/M10 A3032 RMK A01 T00011103  RH  045%=      5-min Rain = 0
KWE1 120544Z 01011KT 00/M10 A3032 RMK A01 T00011103  RH  046%=      5-min Rain = 0
KWE1 120545Z 01012KT 00/M10 A3032 RMK A01 T00011103  RH  046%=      5-min Rain = 0
KWE1 120546Z 01012KT 00/M10 A3032 RMK A01 T00011103  RH  046%=      5-min Rain = 0
KWE1 120547Z 02011KT 00/10 A3032 RMK A01 T00000-103  RH  046%=      5-min Rain = 0
KWE1 120548Z 01012KT 00/10 A3032 RMK A01 T00-00-104  RH  046%=      5-min Rain = 0
KWE1 120549Z 02010G15KT M00/M11 A3032 RMK A01 T10011105  RH  045%=      5-min Rain = 0
KWE1 120550Z 01011KT M00/M11 A3032 RMK A01 T10021106  RH  045%=      5-min Rain = 0
KWE1 120551Z 02013KT M00/M11 A3032 RMK A01 T10021105  RH  046%=      5-min Rain = 0
KWE1 120552Z 02012KT M00/M11 A3032 RMK A01 T10021106  RH  046%=      5-min Rain = 0
KWE1 120553Z 02011KT M00/M11 A3032 RMK A01 T10021107  RH  045%=      5-min Rain = 0
KWE1 120554Z 02011KT M00/M11 A3032 RMK A01 T10021108  RH  045%=      5-min Rain = 0
KWE1 120555Z 02012KT M00/M11 A3032 RMK A01 T10031108  RH  045%=      5-min Rain = 0
KWE1 120556Z 02011KT M00/M11 A3032 RMK A01 T10041109  RH  045%=      5-min Rain = 0
KWE1 120557Z 02011KT M00/M11 A3032 RMK A01 T10041109  RH  045%=      5-min Rain = 0
KWE1 120558Z 02010KT M00/M11 A3032 RMK A01 T10041109  RH  045%=      5-min Rain = 0
KWE1 120559Z 03012G17KT M01/M11 A3032 RMK A01 T10051109  RH  045%=      5-min Rain = 0

Page generated in 0.0328 seconds.